<?xml version="1.0" encoding="UTF-8" standalone="no" ?>
<gpx xmlns="http://www.topografix.com/GPX/1/1" xmlns:xsi="http://www.w3.org/2001/XMLSchema-instance" xsi:schemaLocation="http://www.topografix.com/GPX/1/1 http://www.topografix.com/GPX/1/1/gpx.xsd" version="1.1" creator="VisuGPX - https://www.visugpx.com">
  <metadata>
    <name>Les Esquerdes de Rotjà depuis les Conques via les sources du Tech</name>
    <desc><![CDATA[Boucle pas Conques les équerres de rotga cabane fatg]]></desc>
  </metadata>
  <wpt lat="42.42625" lon="2.39299">
    <ele>1694</ele>
    <name><![CDATA[Col de Baix]]></name>
  </wpt>
  <wpt lat="42.42062" lon="2.37164">
    <ele>1646</ele>
    <name><![CDATA[Cabane Ouillat]]></name>
  </wpt>
  <wpt lat="42.42688" lon="2.35077">
    <ele>1990</ele>
    <name><![CDATA[Baraque de la Coma del Tech]]></name>
  </wpt>
  <wpt lat="42.41702" lon="2.33399">
    <ele>2311</ele>
    <name><![CDATA[Sous le Coll del Pal]]></name>
  </wpt>
  <wpt lat="42.42949" lon="2.33756">
    <ele>2370</ele>
    <name><![CDATA[Porteilla de Rotjà]]></name>
  </wpt>
  <wpt lat="42.43748" lon="2.36527">
    <ele>2233</ele>
    <name><![CDATA[Col 2234m]]></name>
  </wpt>
  <trk>
    <name><![CDATA[Les Esquerdes de Rotjà depuis les Conques via les sources du Tech]]></name>
    <trkseg>
      <trkpt lat="42.42643" lon="2.39794">
        <ele>1604</ele>
        <time>2018-06-23T11:07:37+02:00</time>
      </trkpt>
      <trkpt lat="42.42625" lon="2.39788">
        <ele>1607</ele>
        <time>2018-06-23T11:19:12+02:00</time>
      </trkpt>
      <trkpt lat="42.4261" lon="2.39766">
        <ele>1612</ele>
        <time>2018-06-23T11:20:14+02:00</time>
      </trkpt>
      <trkpt lat="42.42605" lon="2.39746">
        <ele>1615</ele>
        <time>2018-06-23T11:20:37+02:00</time>
      </trkpt>
      <trkpt lat="42.42602" lon="2.39731">
        <ele>1618</ele>
        <time>2018-06-23T11:20:56+02:00</time>
      </trkpt>
      <trkpt lat="42.42599" lon="2.39714">
        <ele>1621</ele>
        <time>2018-06-23T11:21:19+02:00</time>
      </trkpt>
      <trkpt lat="42.42596" lon="2.39697">
        <ele>1624</ele>
        <time>2018-06-23T11:21:41+02:00</time>
      </trkpt>
      <trkpt lat="42.42596" lon="2.39675">
        <ele>1628</ele>
        <time>2018-06-23T11:22:05+02:00</time>
      </trkpt>
      <trkpt lat="42.42603" lon="2.39656">
        <ele>1631</ele>
        <time>2018-06-23T11:22:29+02:00</time>
      </trkpt>
      <trkpt lat="42.42608" lon="2.39632">
        <ele>1638</ele>
        <time>2018-06-23T11:22:56+02:00</time>
      </trkpt>
      <trkpt lat="42.42617" lon="2.39613">
        <ele>1643</ele>
        <time>2018-06-23T11:23:21+02:00</time>
      </trkpt>
      <trkpt lat="42.42615" lon="2.39592">
        <ele>1649</ele>
        <time>2018-06-23T11:24:32+02:00</time>
      </trkpt>
      <trkpt lat="42.42613" lon="2.39574">
        <ele>1654</ele>
        <time>2018-06-23T11:24:52+02:00</time>
      </trkpt>
      <trkpt lat="42.42611" lon="2.39553">
        <ele>1659</ele>
        <time>2018-06-23T11:25:13+02:00</time>
      </trkpt>
      <trkpt lat="42.42608" lon="2.39524">
        <ele>1667</ele>
        <time>2018-06-23T11:26:21+02:00</time>
      </trkpt>
      <trkpt lat="42.42611" lon="2.39497">
        <ele>1673</ele>
        <time>2018-06-23T11:27:22+02:00</time>
      </trkpt>
      <trkpt lat="42.42619" lon="2.39475">
        <ele>1676</ele>
        <time>2018-06-23T11:27:45+02:00</time>
      </trkpt>
      <trkpt lat="42.42621" lon="2.39447">
        <ele>1682</ele>
        <time>2018-06-23T11:28:29+02:00</time>
      </trkpt>
      <trkpt lat="42.42627" lon="2.39423">
        <ele>1686</ele>
        <time>2018-06-23T11:29:12+02:00</time>
      </trkpt>
      <trkpt lat="42.42632" lon="2.39401">
        <ele>1688</ele>
        <time>2018-06-23T11:29:37+02:00</time>
      </trkpt>
      <trkpt lat="42.42636" lon="2.39387">
        <ele>1689</ele>
        <time>2018-06-23T11:29:59+02:00</time>
      </trkpt>
      <trkpt lat="42.42634" lon="2.39358">
        <ele>1692</ele>
        <time>2018-06-23T11:30:32+02:00</time>
      </trkpt>
      <trkpt lat="42.42632" lon="2.39335">
        <ele>1695</ele>
        <time>2018-06-23T11:30:58+02:00</time>
      </trkpt>
      <trkpt lat="42.42625" lon="2.39299">
        <ele>1694</ele>
        <time>2018-06-23T11:31:30+02:00</time>
      </trkpt>
      <trkpt lat="42.42628" lon="2.39295">
        <ele>1694</ele>
        <time>2018-06-23T11:34:14+02:00</time>
      </trkpt>
      <trkpt lat="42.42631" lon="2.39246">
        <ele>1693</ele>
        <time>2018-06-23T11:34:49+02:00</time>
      </trkpt>
      <trkpt lat="42.42623" lon="2.39226">
        <ele>1691</ele>
        <time>2018-06-23T11:35:22+02:00</time>
      </trkpt>
      <trkpt lat="42.42616" lon="2.39201">
        <ele>1688</ele>
        <time>2018-06-23T11:35:59+02:00</time>
      </trkpt>
      <trkpt lat="42.42612" lon="2.39177">
        <ele>1685</ele>
        <time>2018-06-23T11:36:22+02:00</time>
      </trkpt>
      <trkpt lat="42.42611" lon="2.39165">
        <ele>1684</ele>
        <time>2018-06-23T11:36:33+02:00</time>
      </trkpt>
      <trkpt lat="42.42608" lon="2.39136">
        <ele>1682</ele>
        <time>2018-06-23T11:36:52+02:00</time>
      </trkpt>
      <trkpt lat="42.42596" lon="2.39101">
        <ele>1676</ele>
        <time>2018-06-23T11:37:16+02:00</time>
      </trkpt>
      <trkpt lat="42.42597" lon="2.39064">
        <ele>1673</ele>
        <time>2018-06-23T11:37:40+02:00</time>
      </trkpt>
      <trkpt lat="42.42597" lon="2.39036">
        <ele>1671</ele>
        <time>2018-06-23T11:38:06+02:00</time>
      </trkpt>
      <trkpt lat="42.42602" lon="2.39013">
        <ele>1671</ele>
        <time>2018-06-23T11:38:24+02:00</time>
      </trkpt>
      <trkpt lat="42.42613" lon="2.38991">
        <ele>1674</ele>
        <time>2018-06-23T11:38:43+02:00</time>
      </trkpt>
      <trkpt lat="42.42608" lon="2.38972">
        <ele>1672</ele>
        <time>2018-06-23T11:38:55+02:00</time>
      </trkpt>
      <trkpt lat="42.42599" lon="2.38955">
        <ele>1668</ele>
        <time>2018-06-23T11:39:09+02:00</time>
      </trkpt>
      <trkpt lat="42.42585" lon="2.38915">
        <ele>1661</ele>
        <time>2018-06-23T11:39:34+02:00</time>
      </trkpt>
      <trkpt lat="42.42579" lon="2.38904">
        <ele>1660</ele>
        <time>2018-06-23T11:39:44+02:00</time>
      </trkpt>
      <trkpt lat="42.4257" lon="2.38876">
        <ele>1659</ele>
        <time>2018-06-23T11:40:04+02:00</time>
      </trkpt>
      <trkpt lat="42.42557" lon="2.38829">
        <ele>1658</ele>
        <time>2018-06-23T11:40:35+02:00</time>
      </trkpt>
      <trkpt lat="42.42545" lon="2.38774">
        <ele>1654</ele>
        <time>2018-06-23T11:41:11+02:00</time>
      </trkpt>
      <trkpt lat="42.42544" lon="2.38748">
        <ele>1654</ele>
        <time>2018-06-23T11:41:28+02:00</time>
      </trkpt>
      <trkpt lat="42.42562" lon="2.38723">
        <ele>1656</ele>
        <time>2018-06-23T11:41:54+02:00</time>
      </trkpt>
      <trkpt lat="42.42578" lon="2.38715">
        <ele>1659</ele>
        <time>2018-06-23T11:42:09+02:00</time>
      </trkpt>
      <trkpt lat="42.42599" lon="2.38699">
        <ele>1662</ele>
        <time>2018-06-23T11:42:29+02:00</time>
      </trkpt>
      <trkpt lat="42.42602" lon="2.38694">
        <ele>1662</ele>
        <time>2018-06-23T11:42:33+02:00</time>
      </trkpt>
      <trkpt lat="42.42614" lon="2.38669">
        <ele>1662</ele>
        <time>2018-06-23T11:42:52+02:00</time>
      </trkpt>
      <trkpt lat="42.42623" lon="2.38647">
        <ele>1661</ele>
        <time>2018-06-23T11:43:15+02:00</time>
      </trkpt>
      <trkpt lat="42.42631" lon="2.3863">
        <ele>1661</ele>
        <time>2018-06-23T11:43:32+02:00</time>
      </trkpt>
      <trkpt lat="42.4264" lon="2.38604">
        <ele>1660</ele>
        <time>2018-06-23T11:43:54+02:00</time>
      </trkpt>
      <trkpt lat="42.42644" lon="2.38588">
        <ele>1659</ele>
        <time>2018-06-23T11:44:13+02:00</time>
      </trkpt>
      <trkpt lat="42.42648" lon="2.38563">
        <ele>1656</ele>
        <time>2018-06-23T11:44:36+02:00</time>
      </trkpt>
      <trkpt lat="42.42658" lon="2.38552">
        <ele>1658</ele>
        <time>2018-06-23T11:44:52+02:00</time>
      </trkpt>
      <trkpt lat="42.42671" lon="2.38542">
        <ele>1662</ele>
        <time>2018-06-23T11:45:08+02:00</time>
      </trkpt>
      <trkpt lat="42.4269" lon="2.38536">
        <ele>1670</ele>
        <time>2018-06-23T11:45:28+02:00</time>
      </trkpt>
      <trkpt lat="42.42698" lon="2.38516">
        <ele>1671</ele>
        <time>2018-06-23T11:46:02+02:00</time>
      </trkpt>
      <trkpt lat="42.4269" lon="2.38482">
        <ele>1663</ele>
        <time>2018-06-23T11:46:24+02:00</time>
      </trkpt>
      <trkpt lat="42.4269" lon="2.38462">
        <ele>1661</ele>
        <time>2018-06-23T11:46:40+02:00</time>
      </trkpt>
      <trkpt lat="42.427" lon="2.3844">
        <ele>1664</ele>
        <time>2018-06-23T11:47:00+02:00</time>
      </trkpt>
      <trkpt lat="42.4271" lon="2.38425">
        <ele>1669</ele>
        <time>2018-06-23T11:47:15+02:00</time>
      </trkpt>
      <trkpt lat="42.4272" lon="2.38407">
        <ele>1673</ele>
        <time>2018-06-23T11:47:31+02:00</time>
      </trkpt>
      <trkpt lat="42.42717" lon="2.3839">
        <ele>1670</ele>
        <time>2018-06-23T11:47:45+02:00</time>
      </trkpt>
      <trkpt lat="42.42709" lon="2.38368">
        <ele>1663</ele>
        <time>2018-06-23T11:48:06+02:00</time>
      </trkpt>
      <trkpt lat="42.42702" lon="2.38359">
        <ele>1658</ele>
        <time>2018-06-23T11:48:18+02:00</time>
      </trkpt>
      <trkpt lat="42.42699" lon="2.3834">
        <ele>1654</ele>
        <time>2018-06-23T11:48:37+02:00</time>
      </trkpt>
      <trkpt lat="42.42697" lon="2.38324">
        <ele>1653</ele>
        <time>2018-06-23T11:48:53+02:00</time>
      </trkpt>
      <trkpt lat="42.42691" lon="2.38305">
        <ele>1648</ele>
        <time>2018-06-23T11:49:13+02:00</time>
      </trkpt>
      <trkpt lat="42.4268" lon="2.38287">
        <ele>1641</ele>
        <time>2018-06-23T11:49:35+02:00</time>
      </trkpt>
      <trkpt lat="42.42678" lon="2.38261">
        <ele>1639</ele>
        <time>2018-06-23T11:50:03+02:00</time>
      </trkpt>
      <trkpt lat="42.42682" lon="2.38248">
        <ele>1642</ele>
        <time>2018-06-23T11:50:21+02:00</time>
      </trkpt>
      <trkpt lat="42.42697" lon="2.3823">
        <ele>1653</ele>
        <time>2018-06-23T11:50:43+02:00</time>
      </trkpt>
      <trkpt lat="42.42687" lon="2.38206">
        <ele>1651</ele>
        <time>2018-06-23T11:51:31+02:00</time>
      </trkpt>
      <trkpt lat="42.42672" lon="2.38184">
        <ele>1645</ele>
        <time>2018-06-23T11:51:55+02:00</time>
      </trkpt>
      <trkpt lat="42.42653" lon="2.38171">
        <ele>1637</ele>
        <time>2018-06-23T11:52:32+02:00</time>
      </trkpt>
      <trkpt lat="42.42643" lon="2.38159">
        <ele>1634</ele>
        <time>2018-06-23T11:52:50+02:00</time>
      </trkpt>
      <trkpt lat="42.42635" lon="2.38141">
        <ele>1633</ele>
        <time>2018-06-23T11:53:05+02:00</time>
      </trkpt>
      <trkpt lat="42.42632" lon="2.38118">
        <ele>1636</ele>
        <time>2018-06-23T11:53:22+02:00</time>
      </trkpt>
      <trkpt lat="42.42628" lon="2.38096">
        <ele>1638</ele>
        <time>2018-06-23T11:53:38+02:00</time>
      </trkpt>
      <trkpt lat="42.42628" lon="2.38066">
        <ele>1640</ele>
        <time>2018-06-23T11:54:01+02:00</time>
      </trkpt>
      <trkpt lat="42.42629" lon="2.38038">
        <ele>1641</ele>
        <time>2018-06-23T11:54:25+02:00</time>
      </trkpt>
      <trkpt lat="42.42623" lon="2.38006">
        <ele>1637</ele>
        <time>2018-06-23T11:54:46+02:00</time>
      </trkpt>
      <trkpt lat="42.42629" lon="2.37979">
        <ele>1641</ele>
        <time>2018-06-23T11:55:08+02:00</time>
      </trkpt>
      <trkpt lat="42.42632" lon="2.37959">
        <ele>1643</ele>
        <time>2018-06-23T11:55:20+02:00</time>
      </trkpt>
      <trkpt lat="42.42633" lon="2.37944">
        <ele>1644</ele>
        <time>2018-06-23T11:55:29+02:00</time>
      </trkpt>
      <trkpt lat="42.42642" lon="2.37922">
        <ele>1650</ele>
        <time>2018-06-23T11:55:51+02:00</time>
      </trkpt>
      <trkpt lat="42.42647" lon="2.37896">
        <ele>1656</ele>
        <time>2018-06-23T11:56:47+02:00</time>
      </trkpt>
      <trkpt lat="42.4264" lon="2.37879">
        <ele>1654</ele>
        <time>2018-06-23T11:57:13+02:00</time>
      </trkpt>
      <trkpt lat="42.4263" lon="2.3786">
        <ele>1651</ele>
        <time>2018-06-23T11:57:44+02:00</time>
      </trkpt>
      <trkpt lat="42.42623" lon="2.37839">
        <ele>1649</ele>
        <time>2018-06-23T11:58:04+02:00</time>
      </trkpt>
      <trkpt lat="42.42623" lon="2.37819">
        <ele>1652</ele>
        <time>2018-06-23T11:58:27+02:00</time>
      </trkpt>
      <trkpt lat="42.42624" lon="2.37796">
        <ele>1655</ele>
        <time>2018-06-23T11:58:54+02:00</time>
      </trkpt>
      <trkpt lat="42.4263" lon="2.37763">
        <ele>1662</ele>
        <time>2018-06-23T11:59:19+02:00</time>
      </trkpt>
      <trkpt lat="42.42631" lon="2.37746">
        <ele>1666</ele>
        <time>2018-06-23T11:59:39+02:00</time>
      </trkpt>
      <trkpt lat="42.42626" lon="2.37724">
        <ele>1666</ele>
        <time>2018-06-23T12:00:04+02:00</time>
      </trkpt>
      <trkpt lat="42.42615" lon="2.37709">
        <ele>1661</ele>
        <time>2018-06-23T12:00:22+02:00</time>
      </trkpt>
      <trkpt lat="42.42607" lon="2.37683">
        <ele>1660</ele>
        <time>2018-06-23T12:00:44+02:00</time>
      </trkpt>
      <trkpt lat="42.42596" lon="2.37658">
        <ele>1655</ele>
        <time>2018-06-23T12:01:10+02:00</time>
      </trkpt>
      <trkpt lat="42.426" lon="2.3764">
        <ele>1658</ele>
        <time>2018-06-23T12:01:28+02:00</time>
      </trkpt>
      <trkpt lat="42.42601" lon="2.3761">
        <ele>1660</ele>
        <time>2018-06-23T12:01:50+02:00</time>
      </trkpt>
      <trkpt lat="42.42608" lon="2.37593">
        <ele>1666</ele>
        <time>2018-06-23T12:02:09+02:00</time>
      </trkpt>
      <trkpt lat="42.42612" lon="2.37567">
        <ele>1668</ele>
        <time>2018-06-23T12:02:40+02:00</time>
      </trkpt>
      <trkpt lat="42.42618" lon="2.37543">
        <ele>1671</ele>
        <time>2018-06-23T12:03:13+02:00</time>
      </trkpt>
      <trkpt lat="42.4262" lon="2.37529">
        <ele>1672</ele>
        <time>2018-06-23T12:03:30+02:00</time>
      </trkpt>
      <trkpt lat="42.42616" lon="2.37506">
        <ele>1667</ele>
        <time>2018-06-23T12:04:04+02:00</time>
      </trkpt>
      <trkpt lat="42.4263" lon="2.37487">
        <ele>1677</ele>
        <time>2018-06-23T12:04:39+02:00</time>
      </trkpt>
      <trkpt lat="42.42625" lon="2.3746">
        <ele>1673</ele>
        <time>2018-06-23T12:05:16+02:00</time>
      </trkpt>
      <trkpt lat="42.42626" lon="2.37431">
        <ele>1673</ele>
        <time>2018-06-23T12:05:58+02:00</time>
      </trkpt>
      <trkpt lat="42.42629" lon="2.37417">
        <ele>1675</ele>
        <time>2018-06-23T12:06:17+02:00</time>
      </trkpt>
      <trkpt lat="42.42632" lon="2.37398">
        <ele>1676</ele>
        <time>2018-06-23T12:06:36+02:00</time>
      </trkpt>
      <trkpt lat="42.42631" lon="2.37381">
        <ele>1676</ele>
        <time>2018-06-23T12:06:54+02:00</time>
      </trkpt>
      <trkpt lat="42.42636" lon="2.37364">
        <ele>1678</ele>
        <time>2018-06-23T12:07:17+02:00</time>
      </trkpt>
      <trkpt lat="42.42644" lon="2.37339">
        <ele>1680</ele>
        <time>2018-06-23T12:07:41+02:00</time>
      </trkpt>
      <trkpt lat="42.42658" lon="2.37317">
        <ele>1685</ele>
        <time>2018-06-23T12:08:09+02:00</time>
      </trkpt>
      <trkpt lat="42.42671" lon="2.37303">
        <ele>1689</ele>
        <time>2018-06-23T12:08:29+02:00</time>
      </trkpt>
      <trkpt lat="42.42685" lon="2.37297">
        <ele>1693</ele>
        <time>2018-06-23T12:08:50+02:00</time>
      </trkpt>
      <trkpt lat="42.42692" lon="2.3729">
        <ele>1695</ele>
        <time>2018-06-23T12:09:07+02:00</time>
      </trkpt>
      <trkpt lat="42.42712" lon="2.37288">
        <ele>1699</ele>
        <time>2018-06-23T12:09:21+02:00</time>
      </trkpt>
      <trkpt lat="42.42706" lon="2.37263">
        <ele>1699</ele>
        <time>2018-06-23T12:09:46+02:00</time>
      </trkpt>
      <trkpt lat="42.427" lon="2.37243">
        <ele>1702</ele>
        <time>2018-06-23T12:10:11+02:00</time>
      </trkpt>
      <trkpt lat="42.42688" lon="2.37223">
        <ele>1708</ele>
        <time>2018-06-23T12:11:04+02:00</time>
      </trkpt>
      <trkpt lat="42.42677" lon="2.37224">
        <ele>1706</ele>
        <time>2018-06-23T12:11:24+02:00</time>
      </trkpt>
      <trkpt lat="42.42662" lon="2.37241">
        <ele>1697</ele>
        <time>2018-06-23T12:11:45+02:00</time>
      </trkpt>
      <trkpt lat="42.42644" lon="2.3724">
        <ele>1697</ele>
        <time>2018-06-23T12:12:10+02:00</time>
      </trkpt>
      <trkpt lat="42.4263" lon="2.37255">
        <ele>1692</ele>
        <time>2018-06-23T12:13:12+02:00</time>
      </trkpt>
      <trkpt lat="42.42614" lon="2.3727">
        <ele>1688</ele>
        <time>2018-06-23T12:14:21+02:00</time>
      </trkpt>
      <trkpt lat="42.42605" lon="2.3729">
        <ele>1682</ele>
        <time>2018-06-23T12:14:51+02:00</time>
      </trkpt>
      <trkpt lat="42.42577" lon="2.37301">
        <ele>1677</ele>
        <time>2018-06-23T12:15:10+02:00</time>
      </trkpt>
      <trkpt lat="42.42565" lon="2.37302">
        <ele>1681</ele>
        <time>2018-06-23T12:15:20+02:00</time>
      </trkpt>
      <trkpt lat="42.4255" lon="2.3731">
        <ele>1684</ele>
        <time>2018-06-23T12:15:40+02:00</time>
      </trkpt>
      <trkpt lat="42.42533" lon="2.37326">
        <ele>1685</ele>
        <time>2018-06-23T12:16:01+02:00</time>
      </trkpt>
      <trkpt lat="42.42516" lon="2.37337">
        <ele>1687</ele>
        <time>2018-06-23T12:16:19+02:00</time>
      </trkpt>
      <trkpt lat="42.42505" lon="2.37361">
        <ele>1683</ele>
        <time>2018-06-23T12:16:44+02:00</time>
      </trkpt>
      <trkpt lat="42.42492" lon="2.37377">
        <ele>1683</ele>
        <time>2018-06-23T12:17:05+02:00</time>
      </trkpt>
      <trkpt lat="42.42475" lon="2.37395">
        <ele>1684</ele>
        <time>2018-06-23T12:17:26+02:00</time>
      </trkpt>
      <trkpt lat="42.42462" lon="2.37409">
        <ele>1686</ele>
        <time>2018-06-23T12:17:44+02:00</time>
      </trkpt>
      <trkpt lat="42.42448" lon="2.37427">
        <ele>1687</ele>
        <time>2018-06-23T12:18:03+02:00</time>
      </trkpt>
      <trkpt lat="42.42439" lon="2.3744">
        <ele>1687</ele>
        <time>2018-06-23T12:18:22+02:00</time>
      </trkpt>
      <trkpt lat="42.4243" lon="2.37464">
        <ele>1684</ele>
        <time>2018-06-23T12:18:43+02:00</time>
      </trkpt>
      <trkpt lat="42.4242" lon="2.37484">
        <ele>1684</ele>
        <time>2018-06-23T12:19:00+02:00</time>
      </trkpt>
      <trkpt lat="42.42412" lon="2.37516">
        <ele>1676</ele>
        <time>2018-06-23T12:19:22+02:00</time>
      </trkpt>
      <trkpt lat="42.42407" lon="2.37539">
        <ele>1669</ele>
        <time>2018-06-23T12:19:34+02:00</time>
      </trkpt>
      <trkpt lat="42.42403" lon="2.37555">
        <ele>1664</ele>
        <time>2018-06-23T12:19:44+02:00</time>
      </trkpt>
      <trkpt lat="42.42393" lon="2.37575">
        <ele>1660</ele>
        <time>2018-06-23T12:20:04+02:00</time>
      </trkpt>
      <trkpt lat="42.42385" lon="2.37585">
        <ele>1659</ele>
        <time>2018-06-23T12:20:19+02:00</time>
      </trkpt>
      <trkpt lat="42.42377" lon="2.37604">
        <ele>1658</ele>
        <time>2018-06-23T12:20:36+02:00</time>
      </trkpt>
      <trkpt lat="42.42367" lon="2.3762">
        <ele>1658</ele>
        <time>2018-06-23T12:20:53+02:00</time>
      </trkpt>
      <trkpt lat="42.42359" lon="2.37634">
        <ele>1658</ele>
        <time>2018-06-23T12:21:05+02:00</time>
      </trkpt>
      <trkpt lat="42.42346" lon="2.37654">
        <ele>1660</ele>
        <time>2018-06-23T12:21:25+02:00</time>
      </trkpt>
      <trkpt lat="42.42328" lon="2.37649">
        <ele>1662</ele>
        <time>2018-06-23T12:22:39+02:00</time>
      </trkpt>
      <trkpt lat="42.42327" lon="2.37636">
        <ele>1662</ele>
        <time>2018-06-23T12:24:13+02:00</time>
      </trkpt>
      <trkpt lat="42.42326" lon="2.37608">
        <ele>1664</ele>
        <time>2018-06-23T12:24:41+02:00</time>
      </trkpt>
      <trkpt lat="42.4232" lon="2.37589">
        <ele>1662</ele>
        <time>2018-06-23T12:25:01+02:00</time>
      </trkpt>
      <trkpt lat="42.42314" lon="2.37564">
        <ele>1660</ele>
        <time>2018-06-23T12:25:23+02:00</time>
      </trkpt>
      <trkpt lat="42.42308" lon="2.37538">
        <ele>1659</ele>
        <time>2018-06-23T12:25:43+02:00</time>
      </trkpt>
      <trkpt lat="42.42307" lon="2.37529">
        <ele>1659</ele>
        <time>2018-06-23T12:25:55+02:00</time>
      </trkpt>
      <trkpt lat="42.42302" lon="2.37499">
        <ele>1658</ele>
        <time>2018-06-23T12:26:17+02:00</time>
      </trkpt>
      <trkpt lat="42.42301" lon="2.37474">
        <ele>1664</ele>
        <time>2018-06-23T12:26:36+02:00</time>
      </trkpt>
      <trkpt lat="42.42295" lon="2.37458">
        <ele>1664</ele>
        <time>2018-06-23T12:26:53+02:00</time>
      </trkpt>
      <trkpt lat="42.42283" lon="2.37438">
        <ele>1661</ele>
        <time>2018-06-23T12:27:12+02:00</time>
      </trkpt>
      <trkpt lat="42.42269" lon="2.37414">
        <ele>1658</ele>
        <time>2018-06-23T12:27:36+02:00</time>
      </trkpt>
      <trkpt lat="42.42261" lon="2.37396">
        <ele>1655</ele>
        <time>2018-06-23T12:27:58+02:00</time>
      </trkpt>
      <trkpt lat="42.42252" lon="2.37387">
        <ele>1651</ele>
        <time>2018-06-23T12:28:15+02:00</time>
      </trkpt>
      <trkpt lat="42.42242" lon="2.37367">
        <ele>1649</ele>
        <time>2018-06-23T12:28:38+02:00</time>
      </trkpt>
      <trkpt lat="42.42232" lon="2.3735">
        <ele>1646</ele>
        <time>2018-06-23T12:29:00+02:00</time>
      </trkpt>
      <trkpt lat="42.42231" lon="2.37322">
        <ele>1649</ele>
        <time>2018-06-23T12:29:49+02:00</time>
      </trkpt>
      <trkpt lat="42.42232" lon="2.37306">
        <ele>1650</ele>
        <time>2018-06-23T12:30:08+02:00</time>
      </trkpt>
      <trkpt lat="42.42233" lon="2.37283">
        <ele>1652</ele>
        <time>2018-06-23T12:30:29+02:00</time>
      </trkpt>
      <trkpt lat="42.42234" lon="2.37275">
        <ele>1653</ele>
        <time>2018-06-23T12:30:34+02:00</time>
      </trkpt>
      <trkpt lat="42.42229" lon="2.37251">
        <ele>1652</ele>
        <time>2018-06-23T12:30:56+02:00</time>
      </trkpt>
      <trkpt lat="42.42229" lon="2.37229">
        <ele>1653</ele>
        <time>2018-06-23T12:31:15+02:00</time>
      </trkpt>
      <trkpt lat="42.42228" lon="2.37217">
        <ele>1653</ele>
        <time>2018-06-23T12:31:29+02:00</time>
      </trkpt>
      <trkpt lat="42.42226" lon="2.37198">
        <ele>1653</ele>
        <time>2018-06-23T12:31:49+02:00</time>
      </trkpt>
      <trkpt lat="42.42219" lon="2.37172">
        <ele>1651</ele>
        <time>2018-06-23T12:32:06+02:00</time>
      </trkpt>
      <trkpt lat="42.42215" lon="2.37161">
        <ele>1650</ele>
        <time>2018-06-23T12:32:13+02:00</time>
      </trkpt>
      <trkpt lat="42.4221" lon="2.3714">
        <ele>1647</ele>
        <time>2018-06-23T12:32:33+02:00</time>
      </trkpt>
      <trkpt lat="42.42202" lon="2.37107">
        <ele>1644</ele>
        <time>2018-06-23T12:33:01+02:00</time>
      </trkpt>
      <trkpt lat="42.42197" lon="2.37068">
        <ele>1642</ele>
        <time>2018-06-23T12:33:26+02:00</time>
      </trkpt>
      <trkpt lat="42.4219" lon="2.37041">
        <ele>1639</ele>
        <time>2018-06-23T12:33:45+02:00</time>
      </trkpt>
      <trkpt lat="42.42192" lon="2.37035">
        <ele>1640</ele>
        <time>2018-06-23T12:33:49+02:00</time>
      </trkpt>
      <trkpt lat="42.42198" lon="2.37006">
        <ele>1642</ele>
        <time>2018-06-23T12:34:10+02:00</time>
      </trkpt>
      <trkpt lat="42.42201" lon="2.36982">
        <ele>1644</ele>
        <time>2018-06-23T12:34:29+02:00</time>
      </trkpt>
      <trkpt lat="42.42183" lon="2.36977">
        <ele>1639</ele>
        <time>2018-06-23T12:35:24+02:00</time>
      </trkpt>
      <trkpt lat="42.42164" lon="2.36981">
        <ele>1635</ele>
        <time>2018-06-23T12:36:50+02:00</time>
      </trkpt>
      <trkpt lat="42.42145" lon="2.36984">
        <ele>1640</ele>
        <time>2018-06-23T12:40:39+02:00</time>
      </trkpt>
      <trkpt lat="42.42129" lon="2.37003">
        <ele>1644</ele>
        <time>2018-06-23T12:41:16+02:00</time>
      </trkpt>
      <trkpt lat="42.42119" lon="2.37029">
        <ele>1645</ele>
        <time>2018-06-23T12:42:07+02:00</time>
      </trkpt>
      <trkpt lat="42.42127" lon="2.37048">
        <ele>1642</ele>
        <time>2018-06-23T12:42:27+02:00</time>
      </trkpt>
      <trkpt lat="42.4213" lon="2.37061">
        <ele>1640</ele>
        <time>2018-06-23T12:42:40+02:00</time>
      </trkpt>
      <trkpt lat="42.42128" lon="2.37079">
        <ele>1640</ele>
        <time>2018-06-23T12:42:58+02:00</time>
      </trkpt>
      <trkpt lat="42.42126" lon="2.37103">
        <ele>1640</ele>
        <time>2018-06-23T12:43:25+02:00</time>
      </trkpt>
      <trkpt lat="42.42117" lon="2.37124">
        <ele>1640</ele>
        <time>2018-06-23T12:43:49+02:00</time>
      </trkpt>
      <trkpt lat="42.42105" lon="2.37143">
        <ele>1641</ele>
        <time>2018-06-23T12:44:13+02:00</time>
      </trkpt>
      <trkpt lat="42.42104" lon="2.37165">
        <ele>1639</ele>
        <time>2018-06-23T12:44:37+02:00</time>
      </trkpt>
      <trkpt lat="42.42087" lon="2.37173">
        <ele>1641</ele>
        <time>2018-06-23T13:02:58+02:00</time>
      </trkpt>
      <trkpt lat="42.4208" lon="2.37169">
        <ele>1643</ele>
        <time>2018-06-23T13:03:16+02:00</time>
      </trkpt>
      <trkpt lat="42.42062" lon="2.37164">
        <ele>1646</ele>
        <time>2018-06-23T13:03:42+02:00</time>
      </trkpt>
      <trkpt lat="42.42042" lon="2.37155">
        <ele>1650</ele>
        <time>2018-06-23T13:04:11+02:00</time>
      </trkpt>
      <trkpt lat="42.42029" lon="2.37145">
        <ele>1652</ele>
        <time>2018-06-23T13:04:30+02:00</time>
      </trkpt>
      <trkpt lat="42.42012" lon="2.37128">
        <ele>1654</ele>
        <time>2018-06-23T13:04:56+02:00</time>
      </trkpt>
      <trkpt lat="42.41993" lon="2.37107">
        <ele>1657</ele>
        <time>2018-06-23T13:05:26+02:00</time>
      </trkpt>
      <trkpt lat="42.41975" lon="2.37085">
        <ele>1660</ele>
        <time>2018-06-23T13:05:56+02:00</time>
      </trkpt>
      <trkpt lat="42.41971" lon="2.37068">
        <ele>1662</ele>
        <time>2018-06-23T13:06:14+02:00</time>
      </trkpt>
      <trkpt lat="42.41972" lon="2.37051">
        <ele>1663</ele>
        <time>2018-06-23T13:06:33+02:00</time>
      </trkpt>
      <trkpt lat="42.41973" lon="2.37034">
        <ele>1665</ele>
        <time>2018-06-23T13:06:53+02:00</time>
      </trkpt>
      <trkpt lat="42.41975" lon="2.37019">
        <ele>1666</ele>
        <time>2018-06-23T13:07:10+02:00</time>
      </trkpt>
      <trkpt lat="42.41982" lon="2.36994">
        <ele>1669</ele>
        <time>2018-06-23T13:07:53+02:00</time>
      </trkpt>
      <trkpt lat="42.4199" lon="2.36968">
        <ele>1672</ele>
        <time>2018-06-23T13:09:36+02:00</time>
      </trkpt>
      <trkpt lat="42.41996" lon="2.36952">
        <ele>1674</ele>
        <time>2018-06-23T13:09:57+02:00</time>
      </trkpt>
      <trkpt lat="42.41998" lon="2.36934">
        <ele>1677</ele>
        <time>2018-06-23T13:10:18+02:00</time>
      </trkpt>
      <trkpt lat="42.41999" lon="2.36919">
        <ele>1679</ele>
        <time>2018-06-23T13:10:39+02:00</time>
      </trkpt>
      <trkpt lat="42.42004" lon="2.369">
        <ele>1683</ele>
        <time>2018-06-23T13:11:04+02:00</time>
      </trkpt>
      <trkpt lat="42.42006" lon="2.36883">
        <ele>1687</ele>
        <time>2018-06-23T13:11:26+02:00</time>
      </trkpt>
      <trkpt lat="42.42007" lon="2.36853">
        <ele>1695</ele>
        <time>2018-06-23T13:12:08+02:00</time>
      </trkpt>
      <trkpt lat="42.42008" lon="2.36829">
        <ele>1701</ele>
        <time>2018-06-23T13:12:35+02:00</time>
      </trkpt>
      <trkpt lat="42.42007" lon="2.3681">
        <ele>1708</ele>
        <time>2018-06-23T13:12:59+02:00</time>
      </trkpt>
      <trkpt lat="42.42017" lon="2.36798">
        <ele>1709</ele>
        <time>2018-06-23T13:13:20+02:00</time>
      </trkpt>
      <trkpt lat="42.42026" lon="2.36785">
        <ele>1711</ele>
        <time>2018-06-23T13:13:45+02:00</time>
      </trkpt>
      <trkpt lat="42.42032" lon="2.36772">
        <ele>1714</ele>
        <time>2018-06-23T13:14:08+02:00</time>
      </trkpt>
      <trkpt lat="42.4205" lon="2.36747">
        <ele>1718</ele>
        <time>2018-06-23T13:14:35+02:00</time>
      </trkpt>
      <trkpt lat="42.42059" lon="2.3673">
        <ele>1722</ele>
        <time>2018-06-23T13:14:57+02:00</time>
      </trkpt>
      <trkpt lat="42.42066" lon="2.36717">
        <ele>1726</ele>
        <time>2018-06-23T13:15:14+02:00</time>
      </trkpt>
      <trkpt lat="42.42082" lon="2.36697">
        <ele>1730</ele>
        <time>2018-06-23T13:16:00+02:00</time>
      </trkpt>
      <trkpt lat="42.42092" lon="2.36684">
        <ele>1732</ele>
        <time>2018-06-23T13:16:20+02:00</time>
      </trkpt>
      <trkpt lat="42.42109" lon="2.36664">
        <ele>1736</ele>
        <time>2018-06-23T13:16:46+02:00</time>
      </trkpt>
      <trkpt lat="42.42118" lon="2.36652">
        <ele>1738</ele>
        <time>2018-06-23T13:17:07+02:00</time>
      </trkpt>
      <trkpt lat="42.42135" lon="2.36632">
        <ele>1741</ele>
        <time>2018-06-23T13:17:28+02:00</time>
      </trkpt>
      <trkpt lat="42.42144" lon="2.36619">
        <ele>1743</ele>
        <time>2018-06-23T13:17:47+02:00</time>
      </trkpt>
      <trkpt lat="42.4215" lon="2.36603">
        <ele>1748</ele>
        <time>2018-06-23T13:18:11+02:00</time>
      </trkpt>
      <trkpt lat="42.4216" lon="2.36589">
        <ele>1750</ele>
        <time>2018-06-23T13:18:34+02:00</time>
      </trkpt>
      <trkpt lat="42.42173" lon="2.36577">
        <ele>1750</ele>
        <time>2018-06-23T13:18:56+02:00</time>
      </trkpt>
      <trkpt lat="42.42185" lon="2.36568">
        <ele>1750</ele>
        <time>2018-06-23T13:19:15+02:00</time>
      </trkpt>
      <trkpt lat="42.42196" lon="2.36555">
        <ele>1752</ele>
        <time>2018-06-23T13:19:38+02:00</time>
      </trkpt>
      <trkpt lat="42.42209" lon="2.36536">
        <ele>1755</ele>
        <time>2018-06-23T13:20:16+02:00</time>
      </trkpt>
      <trkpt lat="42.4222" lon="2.36516">
        <ele>1759</ele>
        <time>2018-06-23T13:20:36+02:00</time>
      </trkpt>
      <trkpt lat="42.4223" lon="2.36503">
        <ele>1760</ele>
        <time>2018-06-23T13:20:58+02:00</time>
      </trkpt>
      <trkpt lat="42.42244" lon="2.36482">
        <ele>1763</ele>
        <time>2018-06-23T13:21:22+02:00</time>
      </trkpt>
      <trkpt lat="42.42254" lon="2.36461">
        <ele>1765</ele>
        <time>2018-06-23T13:21:42+02:00</time>
      </trkpt>
      <trkpt lat="42.42259" lon="2.36434">
        <ele>1770</ele>
        <time>2018-06-23T13:22:05+02:00</time>
      </trkpt>
      <trkpt lat="42.42269" lon="2.36411">
        <ele>1772</ele>
        <time>2018-06-23T13:22:25+02:00</time>
      </trkpt>
      <trkpt lat="42.42276" lon="2.36389">
        <ele>1775</ele>
        <time>2018-06-23T13:22:57+02:00</time>
      </trkpt>
      <trkpt lat="42.42287" lon="2.36363">
        <ele>1777</ele>
        <time>2018-06-23T13:23:33+02:00</time>
      </trkpt>
      <trkpt lat="42.42305" lon="2.36352">
        <ele>1771</ele>
        <time>2018-06-23T13:23:57+02:00</time>
      </trkpt>
      <trkpt lat="42.42307" lon="2.36343">
        <ele>1773</ele>
        <time>2018-06-23T13:24:15+02:00</time>
      </trkpt>
      <trkpt lat="42.4231" lon="2.36319">
        <ele>1779</ele>
        <time>2018-06-23T13:24:40+02:00</time>
      </trkpt>
      <trkpt lat="42.42326" lon="2.36301">
        <ele>1777</ele>
        <time>2018-06-23T13:25:08+02:00</time>
      </trkpt>
      <trkpt lat="42.42329" lon="2.3629">
        <ele>1779</ele>
        <time>2018-06-23T13:25:25+02:00</time>
      </trkpt>
      <trkpt lat="42.42338" lon="2.36274">
        <ele>1779</ele>
        <time>2018-06-23T13:25:45+02:00</time>
      </trkpt>
      <trkpt lat="42.42343" lon="2.36257">
        <ele>1782</ele>
        <time>2018-06-23T13:25:57+02:00</time>
      </trkpt>
      <trkpt lat="42.42356" lon="2.36238">
        <ele>1783</ele>
        <time>2018-06-23T13:26:19+02:00</time>
      </trkpt>
      <trkpt lat="42.42366" lon="2.36223">
        <ele>1785</ele>
        <time>2018-06-23T13:26:42+02:00</time>
      </trkpt>
      <trkpt lat="42.42373" lon="2.36214">
        <ele>1785</ele>
        <time>2018-06-23T13:26:53+02:00</time>
      </trkpt>
      <trkpt lat="42.42379" lon="2.36194">
        <ele>1791</ele>
        <time>2018-06-23T13:27:13+02:00</time>
      </trkpt>
      <trkpt lat="42.42389" lon="2.3619">
        <ele>1788</ele>
        <time>2018-06-23T13:27:34+02:00</time>
      </trkpt>
      <trkpt lat="42.4241" lon="2.36164">
        <ele>1791</ele>
        <time>2018-06-23T13:28:06+02:00</time>
      </trkpt>
      <trkpt lat="42.42431" lon="2.36154">
        <ele>1792</ele>
        <time>2018-06-23T13:28:35+02:00</time>
      </trkpt>
      <trkpt lat="42.42446" lon="2.36136">
        <ele>1798</ele>
        <time>2018-06-23T13:28:55+02:00</time>
      </trkpt>
      <trkpt lat="42.42456" lon="2.36125">
        <ele>1801</ele>
        <time>2018-06-23T13:29:14+02:00</time>
      </trkpt>
      <trkpt lat="42.42468" lon="2.36122">
        <ele>1801</ele>
        <time>2018-06-23T13:29:30+02:00</time>
      </trkpt>
      <trkpt lat="42.42479" lon="2.36111">
        <ele>1804</ele>
        <time>2018-06-23T13:29:45+02:00</time>
      </trkpt>
      <trkpt lat="42.42497" lon="2.36107">
        <ele>1803</ele>
        <time>2018-06-23T13:30:19+02:00</time>
      </trkpt>
      <trkpt lat="42.42513" lon="2.36093">
        <ele>1802</ele>
        <time>2018-06-23T13:31:47+02:00</time>
      </trkpt>
      <trkpt lat="42.42511" lon="2.36067">
        <ele>1811</ele>
        <time>2018-06-23T13:32:26+02:00</time>
      </trkpt>
      <trkpt lat="42.42513" lon="2.36039">
        <ele>1818</ele>
        <time>2018-06-23T13:33:09+02:00</time>
      </trkpt>
      <trkpt lat="42.42514" lon="2.36012">
        <ele>1825</ele>
        <time>2018-06-23T13:33:53+02:00</time>
      </trkpt>
      <trkpt lat="42.4251" lon="2.35988">
        <ele>1832</ele>
        <time>2018-06-23T13:34:50+02:00</time>
      </trkpt>
      <trkpt lat="42.42518" lon="2.35959">
        <ele>1834</ele>
        <time>2018-06-23T13:35:38+02:00</time>
      </trkpt>
      <trkpt lat="42.42518" lon="2.35939">
        <ele>1838</ele>
        <time>2018-06-23T13:36:04+02:00</time>
      </trkpt>
      <trkpt lat="42.42535" lon="2.35921">
        <ele>1833</ele>
        <time>2018-06-23T13:36:42+02:00</time>
      </trkpt>
      <trkpt lat="42.42542" lon="2.35915">
        <ele>1832</ele>
        <time>2018-06-23T13:36:55+02:00</time>
      </trkpt>
      <trkpt lat="42.4255" lon="2.35894">
        <ele>1833</ele>
        <time>2018-06-23T13:37:25+02:00</time>
      </trkpt>
      <trkpt lat="42.42568" lon="2.35873">
        <ele>1830</ele>
        <time>2018-06-23T13:37:53+02:00</time>
      </trkpt>
      <trkpt lat="42.42575" lon="2.35846">
        <ele>1833</ele>
        <time>2018-06-23T13:38:33+02:00</time>
      </trkpt>
      <trkpt lat="42.42577" lon="2.35826">
        <ele>1836</ele>
        <time>2018-06-23T13:38:54+02:00</time>
      </trkpt>
      <trkpt lat="42.42575" lon="2.35805">
        <ele>1840</ele>
        <time>2018-06-23T13:39:16+02:00</time>
      </trkpt>
      <trkpt lat="42.4257" lon="2.35779">
        <ele>1846</ele>
        <time>2018-06-23T13:41:51+02:00</time>
      </trkpt>
      <trkpt lat="42.4257" lon="2.35764">
        <ele>1848</ele>
        <time>2018-06-23T13:42:32+02:00</time>
      </trkpt>
      <trkpt lat="42.42564" lon="2.35737">
        <ele>1855</ele>
        <time>2018-06-23T13:43:16+02:00</time>
      </trkpt>
      <trkpt lat="42.42561" lon="2.35722">
        <ele>1859</ele>
        <time>2018-06-23T13:43:57+02:00</time>
      </trkpt>
      <trkpt lat="42.42559" lon="2.35707">
        <ele>1861</ele>
        <time>2018-06-23T13:44:21+02:00</time>
      </trkpt>
      <trkpt lat="42.42552" lon="2.35691">
        <ele>1866</ele>
        <time>2018-06-23T13:44:42+02:00</time>
      </trkpt>
      <trkpt lat="42.42553" lon="2.35665">
        <ele>1869</ele>
        <time>2018-06-23T13:45:23+02:00</time>
      </trkpt>
      <trkpt lat="42.42553" lon="2.35637">
        <ele>1875</ele>
        <time>2018-06-23T13:45:51+02:00</time>
      </trkpt>
      <trkpt lat="42.4256" lon="2.35618">
        <ele>1876</ele>
        <time>2018-06-23T13:46:14+02:00</time>
      </trkpt>
      <trkpt lat="42.42559" lon="2.35596">
        <ele>1881</ele>
        <time>2018-06-23T13:46:34+02:00</time>
      </trkpt>
      <trkpt lat="42.4257" lon="2.35577">
        <ele>1882</ele>
        <time>2018-06-23T13:46:58+02:00</time>
      </trkpt>
      <trkpt lat="42.42587" lon="2.35561">
        <ele>1881</ele>
        <time>2018-06-23T13:47:19+02:00</time>
      </trkpt>
      <trkpt lat="42.42595" lon="2.35541">
        <ele>1888</ele>
        <time>2018-06-23T13:47:43+02:00</time>
      </trkpt>
      <trkpt lat="42.42602" lon="2.35514">
        <ele>1896</ele>
        <time>2018-06-23T13:48:16+02:00</time>
      </trkpt>
      <trkpt lat="42.42619" lon="2.35511">
        <ele>1896</ele>
        <time>2018-06-23T13:48:50+02:00</time>
      </trkpt>
      <trkpt lat="42.42635" lon="2.35499">
        <ele>1900</ele>
        <time>2018-06-23T13:49:27+02:00</time>
      </trkpt>
      <trkpt lat="42.42645" lon="2.35482">
        <ele>1905</ele>
        <time>2018-06-23T13:50:01+02:00</time>
      </trkpt>
      <trkpt lat="42.42653" lon="2.35467">
        <ele>1910</ele>
        <time>2018-06-23T13:50:28+02:00</time>
      </trkpt>
      <trkpt lat="42.4266" lon="2.35457">
        <ele>1913</ele>
        <time>2018-06-23T13:50:47+02:00</time>
      </trkpt>
      <trkpt lat="42.42672" lon="2.35432">
        <ele>1921</ele>
        <time>2018-06-23T13:51:28+02:00</time>
      </trkpt>
      <trkpt lat="42.4269" lon="2.35416">
        <ele>1927</ele>
        <time>2018-06-23T13:52:08+02:00</time>
      </trkpt>
      <trkpt lat="42.42708" lon="2.35417">
        <ele>1928</ele>
        <time>2018-06-23T13:52:50+02:00</time>
      </trkpt>
      <trkpt lat="42.42717" lon="2.35414">
        <ele>1929</ele>
        <time>2018-06-23T13:53:09+02:00</time>
      </trkpt>
      <trkpt lat="42.42728" lon="2.35399">
        <ele>1933</ele>
        <time>2018-06-23T13:53:30+02:00</time>
      </trkpt>
      <trkpt lat="42.42733" lon="2.35387">
        <ele>1936</ele>
        <time>2018-06-23T13:53:45+02:00</time>
      </trkpt>
      <trkpt lat="42.42732" lon="2.35361">
        <ele>1941</ele>
        <time>2018-06-23T13:54:14+02:00</time>
      </trkpt>
      <trkpt lat="42.42736" lon="2.35346">
        <ele>1945</ele>
        <time>2018-06-23T13:54:42+02:00</time>
      </trkpt>
      <trkpt lat="42.42735" lon="2.35322">
        <ele>1951</ele>
        <time>2018-06-23T13:55:16+02:00</time>
      </trkpt>
      <trkpt lat="42.42732" lon="2.353">
        <ele>1957</ele>
        <time>2018-06-23T13:55:42+02:00</time>
      </trkpt>
      <trkpt lat="42.42737" lon="2.35274">
        <ele>1964</ele>
        <time>2018-06-23T13:56:14+02:00</time>
      </trkpt>
      <trkpt lat="42.42745" lon="2.35252">
        <ele>1971</ele>
        <time>2018-06-23T13:56:38+02:00</time>
      </trkpt>
      <trkpt lat="42.42748" lon="2.35227">
        <ele>1974</ele>
        <time>2018-06-23T13:57:14+02:00</time>
      </trkpt>
      <trkpt lat="42.42739" lon="2.352">
        <ele>1978</ele>
        <time>2018-06-23T13:58:26+02:00</time>
      </trkpt>
      <trkpt lat="42.42742" lon="2.3518">
        <ele>1981</ele>
        <time>2018-06-23T13:59:14+02:00</time>
      </trkpt>
      <trkpt lat="42.42741" lon="2.35167">
        <ele>1983</ele>
        <time>2018-06-23T13:59:31+02:00</time>
      </trkpt>
      <trkpt lat="42.42731" lon="2.35144">
        <ele>1985</ele>
        <time>2018-06-23T13:59:59+02:00</time>
      </trkpt>
      <trkpt lat="42.4273" lon="2.35116">
        <ele>1987</ele>
        <time>2018-06-23T14:00:31+02:00</time>
      </trkpt>
      <trkpt lat="42.4271" lon="2.35102">
        <ele>1989</ele>
        <time>2018-06-23T14:03:40+02:00</time>
      </trkpt>
      <trkpt lat="42.42693" lon="2.35099">
        <ele>1990</ele>
        <time>2018-06-23T14:05:13+02:00</time>
      </trkpt>
      <trkpt lat="42.42688" lon="2.35077">
        <ele>1990</ele>
        <time>2018-06-23T14:08:31+02:00</time>
      </trkpt>
      <trkpt lat="42.42673" lon="2.35054">
        <ele>1989</ele>
        <time>2018-06-23T14:09:01+02:00</time>
      </trkpt>
      <trkpt lat="42.42664" lon="2.35035">
        <ele>1988</ele>
        <time>2018-06-23T14:09:24+02:00</time>
      </trkpt>
      <trkpt lat="42.42659" lon="2.35007">
        <ele>1987</ele>
        <time>2018-06-23T14:09:51+02:00</time>
      </trkpt>
      <trkpt lat="42.4265" lon="2.3498">
        <ele>1988</ele>
        <time>2018-06-23T14:10:20+02:00</time>
      </trkpt>
      <trkpt lat="42.42646" lon="2.34961">
        <ele>1990</ele>
        <time>2018-06-23T14:10:40+02:00</time>
      </trkpt>
      <trkpt lat="42.42639" lon="2.34951">
        <ele>1992</ele>
        <time>2018-06-23T14:11:03+02:00</time>
      </trkpt>
      <trkpt lat="42.42639" lon="2.34922">
        <ele>1993</ele>
        <time>2018-06-23T14:15:14+02:00</time>
      </trkpt>
      <trkpt lat="42.42638" lon="2.34904">
        <ele>1994</ele>
        <time>2018-06-23T14:15:36+02:00</time>
      </trkpt>
      <trkpt lat="42.42621" lon="2.34888">
        <ele>1998</ele>
        <time>2018-06-23T14:16:17+02:00</time>
      </trkpt>
      <trkpt lat="42.42606" lon="2.34876">
        <ele>2001</ele>
        <time>2018-06-23T14:17:03+02:00</time>
      </trkpt>
      <trkpt lat="42.4259" lon="2.34857">
        <ele>2004</ele>
        <time>2018-06-23T14:17:46+02:00</time>
      </trkpt>
      <trkpt lat="42.42577" lon="2.34845">
        <ele>2007</ele>
        <time>2018-06-23T14:18:36+02:00</time>
      </trkpt>
      <trkpt lat="42.42568" lon="2.34828">
        <ele>2011</ele>
        <time>2018-06-23T14:19:00+02:00</time>
      </trkpt>
      <trkpt lat="42.42554" lon="2.34808">
        <ele>2017</ele>
        <time>2018-06-23T14:19:40+02:00</time>
      </trkpt>
      <trkpt lat="42.42541" lon="2.34795">
        <ele>2021</ele>
        <time>2018-06-23T14:19:59+02:00</time>
      </trkpt>
      <trkpt lat="42.4253" lon="2.34775">
        <ele>2023</ele>
        <time>2018-06-23T14:20:47+02:00</time>
      </trkpt>
      <trkpt lat="42.42519" lon="2.34759">
        <ele>2026</ele>
        <time>2018-06-23T14:21:09+02:00</time>
      </trkpt>
      <trkpt lat="42.425" lon="2.34748">
        <ele>2030</ele>
        <time>2018-06-23T14:21:37+02:00</time>
      </trkpt>
      <trkpt lat="42.42484" lon="2.34729">
        <ele>2038</ele>
        <time>2018-06-23T14:22:12+02:00</time>
      </trkpt>
      <trkpt lat="42.42464" lon="2.34713">
        <ele>2046</ele>
        <time>2018-06-23T14:22:43+02:00</time>
      </trkpt>
      <trkpt lat="42.42452" lon="2.34696">
        <ele>2051</ele>
        <time>2018-06-23T14:23:05+02:00</time>
      </trkpt>
      <trkpt lat="42.42439" lon="2.34677">
        <ele>2055</ele>
        <time>2018-06-23T14:23:44+02:00</time>
      </trkpt>
      <trkpt lat="42.42436" lon="2.34659">
        <ele>2056</ele>
        <time>2018-06-23T14:24:25+02:00</time>
      </trkpt>
      <trkpt lat="42.42425" lon="2.34635">
        <ele>2062</ele>
        <time>2018-06-23T14:25:30+02:00</time>
      </trkpt>
      <trkpt lat="42.42415" lon="2.3461">
        <ele>2066</ele>
        <time>2018-06-23T14:26:07+02:00</time>
      </trkpt>
      <trkpt lat="42.42414" lon="2.3459">
        <ele>2067</ele>
        <time>2018-06-23T14:26:36+02:00</time>
      </trkpt>
      <trkpt lat="42.42406" lon="2.34566">
        <ele>2071</ele>
        <time>2018-06-23T14:27:11+02:00</time>
      </trkpt>
      <trkpt lat="42.42395" lon="2.34545">
        <ele>2077</ele>
        <time>2018-06-23T14:27:47+02:00</time>
      </trkpt>
      <trkpt lat="42.4238" lon="2.34525">
        <ele>2083</ele>
        <time>2018-06-23T14:28:18+02:00</time>
      </trkpt>
      <trkpt lat="42.42378" lon="2.34506">
        <ele>2085</ele>
        <time>2018-06-23T14:28:40+02:00</time>
      </trkpt>
      <trkpt lat="42.42373" lon="2.34489">
        <ele>2088</ele>
        <time>2018-06-23T14:28:58+02:00</time>
      </trkpt>
      <trkpt lat="42.42378" lon="2.34466">
        <ele>2089</ele>
        <time>2018-06-23T14:29:25+02:00</time>
      </trkpt>
      <trkpt lat="42.42371" lon="2.34444">
        <ele>2094</ele>
        <time>2018-06-23T14:29:51+02:00</time>
      </trkpt>
      <trkpt lat="42.42366" lon="2.34419">
        <ele>2097</ele>
        <time>2018-06-23T14:30:21+02:00</time>
      </trkpt>
      <trkpt lat="42.42367" lon="2.34389">
        <ele>2102</ele>
        <time>2018-06-23T14:30:47+02:00</time>
      </trkpt>
      <trkpt lat="42.42379" lon="2.3437">
        <ele>2103</ele>
        <time>2018-06-23T14:31:10+02:00</time>
      </trkpt>
      <trkpt lat="42.42383" lon="2.34355">
        <ele>2104</ele>
        <time>2018-06-23T14:31:26+02:00</time>
      </trkpt>
      <trkpt lat="42.42389" lon="2.34338">
        <ele>2105</ele>
        <time>2018-06-23T14:31:45+02:00</time>
      </trkpt>
      <trkpt lat="42.42398" lon="2.34319">
        <ele>2104</ele>
        <time>2018-06-23T14:32:09+02:00</time>
      </trkpt>
      <trkpt lat="42.42381" lon="2.34282">
        <ele>2111</ele>
        <time>2018-06-23T14:32:41+02:00</time>
      </trkpt>
      <trkpt lat="42.42373" lon="2.34254">
        <ele>2114</ele>
        <time>2018-06-23T14:32:48+02:00</time>
      </trkpt>
      <trkpt lat="42.42354" lon="2.34221">
        <ele>2117</ele>
        <time>2020-07-24T09:09:06+02:00</time>
      </trkpt>
      <trkpt lat="42.42324" lon="2.34184">
        <ele>2121</ele>
        <time>2018-06-23T14:36:56+02:00</time>
      </trkpt>
      <trkpt lat="42.42298" lon="2.34168">
        <ele>2128</ele>
        <time>2018-06-23T14:37:23+02:00</time>
      </trkpt>
      <trkpt lat="42.42268" lon="2.34139">
        <ele>2135</ele>
        <time>2018-06-23T14:37:51+02:00</time>
      </trkpt>
      <trkpt lat="42.4223" lon="2.34128">
        <ele>2146</ele>
        <time>2018-06-23T14:38:18+02:00</time>
      </trkpt>
      <trkpt lat="42.42237" lon="2.34166">
        <ele>2148</ele>
        <time>2018-06-23T15:25:18+02:00</time>
      </trkpt>
      <trkpt lat="42.42212" lon="2.34165">
        <ele>2156</ele>
        <time>2018-06-23T15:25:39+02:00</time>
      </trkpt>
      <trkpt lat="42.42189" lon="2.34153">
        <ele>2162</ele>
        <time>2018-06-23T15:26:01+02:00</time>
      </trkpt>
      <trkpt lat="42.42154" lon="2.34154">
        <ele>2175</ele>
        <time>2018-06-23T15:26:23+02:00</time>
      </trkpt>
      <trkpt lat="42.42126" lon="2.3415">
        <ele>2186</ele>
        <time>2018-06-23T15:26:52+02:00</time>
      </trkpt>
      <trkpt lat="42.42101" lon="2.34127">
        <ele>2194</ele>
        <time>2018-06-23T15:26:58+02:00</time>
      </trkpt>
      <trkpt lat="42.42094" lon="2.341">
        <ele>2194</ele>
        <time>2018-06-23T15:27:19+02:00</time>
      </trkpt>
      <trkpt lat="42.42093" lon="2.34068">
        <ele>2194</ele>
        <time>2020-07-24T09:10:06+02:00</time>
      </trkpt>
      <trkpt lat="42.42083" lon="2.34035">
        <ele>2201</ele>
        <time>2018-06-23T15:31:38+02:00</time>
      </trkpt>
      <trkpt lat="42.42072" lon="2.34013">
        <ele>2208</ele>
        <time>2018-06-23T15:32:14+02:00</time>
      </trkpt>
      <trkpt lat="42.42074" lon="2.33987">
        <ele>2209</ele>
        <time>2018-06-23T15:33:07+02:00</time>
      </trkpt>
      <trkpt lat="42.42067" lon="2.33967">
        <ele>2213</ele>
        <time>2018-06-23T15:33:44+02:00</time>
      </trkpt>
      <trkpt lat="42.42068" lon="2.33938">
        <ele>2215</ele>
        <time>2018-06-23T15:34:29+02:00</time>
      </trkpt>
      <trkpt lat="42.42064" lon="2.33918">
        <ele>2217</ele>
        <time>2018-06-23T15:34:56+02:00</time>
      </trkpt>
      <trkpt lat="42.42052" lon="2.33898">
        <ele>2219</ele>
        <time>2018-06-23T15:35:20+02:00</time>
      </trkpt>
      <trkpt lat="42.42038" lon="2.3388">
        <ele>2221</ele>
        <time>2018-06-23T15:35:45+02:00</time>
      </trkpt>
      <trkpt lat="42.4202" lon="2.33868">
        <ele>2224</ele>
        <time>2018-06-23T15:36:15+02:00</time>
      </trkpt>
      <trkpt lat="42.42006" lon="2.33852">
        <ele>2226</ele>
        <time>2018-06-23T15:36:56+02:00</time>
      </trkpt>
      <trkpt lat="42.41992" lon="2.33831">
        <ele>2229</ele>
        <time>2018-06-23T15:37:24+02:00</time>
      </trkpt>
      <trkpt lat="42.41982" lon="2.33815">
        <ele>2233</ele>
        <time>2018-06-23T15:37:46+02:00</time>
      </trkpt>
      <trkpt lat="42.41977" lon="2.33798">
        <ele>2234</ele>
        <time>2018-06-23T15:38:05+02:00</time>
      </trkpt>
      <trkpt lat="42.41968" lon="2.33776">
        <ele>2236</ele>
        <time>2018-06-23T15:38:27+02:00</time>
      </trkpt>
      <trkpt lat="42.41956" lon="2.33757">
        <ele>2238</ele>
        <time>2018-06-23T15:38:52+02:00</time>
      </trkpt>
      <trkpt lat="42.41947" lon="2.33744">
        <ele>2241</ele>
        <time>2018-06-23T15:39:13+02:00</time>
      </trkpt>
      <trkpt lat="42.41937" lon="2.33727">
        <ele>2244</ele>
        <time>2018-06-23T15:39:34+02:00</time>
      </trkpt>
      <trkpt lat="42.41932" lon="2.33712">
        <ele>2245</ele>
        <time>2018-06-23T15:39:54+02:00</time>
      </trkpt>
      <trkpt lat="42.41926" lon="2.33695">
        <ele>2247</ele>
        <time>2018-06-23T15:40:16+02:00</time>
      </trkpt>
      <trkpt lat="42.41913" lon="2.33672">
        <ele>2251</ele>
        <time>2018-06-23T15:40:55+02:00</time>
      </trkpt>
      <trkpt lat="42.41906" lon="2.33657">
        <ele>2254</ele>
        <time>2018-06-23T15:41:20+02:00</time>
      </trkpt>
      <trkpt lat="42.41896" lon="2.33643">
        <ele>2257</ele>
        <time>2018-06-23T15:41:41+02:00</time>
      </trkpt>
      <trkpt lat="42.41885" lon="2.33624">
        <ele>2261</ele>
        <time>2018-06-23T15:42:03+02:00</time>
      </trkpt>
      <trkpt lat="42.41878" lon="2.33603">
        <ele>2263</ele>
        <time>2018-06-23T15:42:21+02:00</time>
      </trkpt>
      <trkpt lat="42.41867" lon="2.33585">
        <ele>2265</ele>
        <time>2018-06-23T15:42:42+02:00</time>
      </trkpt>
      <trkpt lat="42.4186" lon="2.33568">
        <ele>2268</ele>
        <time>2018-06-23T15:43:10+02:00</time>
      </trkpt>
      <trkpt lat="42.41845" lon="2.33556">
        <ele>2273</ele>
        <time>2018-06-23T15:43:32+02:00</time>
      </trkpt>
      <trkpt lat="42.41834" lon="2.33545">
        <ele>2277</ele>
        <time>2018-06-23T15:43:52+02:00</time>
      </trkpt>
      <trkpt lat="42.41818" lon="2.33524">
        <ele>2283</ele>
        <time>2018-06-23T15:44:31+02:00</time>
      </trkpt>
      <trkpt lat="42.41804" lon="2.33504">
        <ele>2286</ele>
        <time>2018-06-23T15:45:09+02:00</time>
      </trkpt>
      <trkpt lat="42.41787" lon="2.33487">
        <ele>2291</ele>
        <time>2018-06-23T15:45:53+02:00</time>
      </trkpt>
      <trkpt lat="42.41777" lon="2.33475">
        <ele>2294</ele>
        <time>2018-06-23T15:46:14+02:00</time>
      </trkpt>
      <trkpt lat="42.41765" lon="2.3346">
        <ele>2297</ele>
        <time>2018-06-23T15:46:37+02:00</time>
      </trkpt>
      <trkpt lat="42.41747" lon="2.3345">
        <ele>2302</ele>
        <time>2018-06-23T15:47:04+02:00</time>
      </trkpt>
      <trkpt lat="42.4173" lon="2.33439">
        <ele>2305</ele>
        <time>2018-06-23T15:47:31+02:00</time>
      </trkpt>
      <trkpt lat="42.41717" lon="2.33426">
        <ele>2307</ele>
        <time>2018-06-23T15:47:55+02:00</time>
      </trkpt>
      <trkpt lat="42.41705" lon="2.33408">
        <ele>2310</ele>
        <time>2018-06-23T15:48:20+02:00</time>
      </trkpt>
      <trkpt lat="42.41702" lon="2.33399">
        <ele>2311</ele>
        <time>2018-06-23T15:48:55+02:00</time>
      </trkpt>
      <trkpt lat="42.41711" lon="2.33376">
        <ele>2311</ele>
        <time>2018-06-23T15:49:20+02:00</time>
      </trkpt>
      <trkpt lat="42.41726" lon="2.33347">
        <ele>2310</ele>
        <time>2018-06-23T15:49:49+02:00</time>
      </trkpt>
      <trkpt lat="42.41739" lon="2.33327">
        <ele>2309</ele>
        <time>2018-06-23T15:50:17+02:00</time>
      </trkpt>
      <trkpt lat="42.41748" lon="2.33308">
        <ele>2308</ele>
        <time>2018-06-23T15:50:50+02:00</time>
      </trkpt>
      <trkpt lat="42.41756" lon="2.33297">
        <ele>2306</ele>
        <time>2018-06-23T15:50:59+02:00</time>
      </trkpt>
      <trkpt lat="42.41763" lon="2.33277">
        <ele>2306</ele>
        <time>2018-06-23T15:51:16+02:00</time>
      </trkpt>
      <trkpt lat="42.41775" lon="2.33262">
        <ele>2304</ele>
        <time>2018-06-23T15:51:45+02:00</time>
      </trkpt>
      <trkpt lat="42.41795" lon="2.33225">
        <ele>2304</ele>
        <time>2018-06-23T15:52:12+02:00</time>
      </trkpt>
      <trkpt lat="42.41809" lon="2.33195">
        <ele>2304</ele>
        <time>2018-06-23T15:52:36+02:00</time>
      </trkpt>
      <trkpt lat="42.41816" lon="2.33168">
        <ele>2305</ele>
        <time>2018-06-23T15:52:56+02:00</time>
      </trkpt>
      <trkpt lat="42.41821" lon="2.33159">
        <ele>2305</ele>
        <time>2018-06-23T15:53:02+02:00</time>
      </trkpt>
      <trkpt lat="42.41839" lon="2.33121">
        <ele>2305</ele>
        <time>2018-06-23T15:53:30+02:00</time>
      </trkpt>
      <trkpt lat="42.41852" lon="2.33101">
        <ele>2304</ele>
        <time>2018-06-23T15:53:46+02:00</time>
      </trkpt>
      <trkpt lat="42.41853" lon="2.33094">
        <ele>2304</ele>
        <time>2018-06-23T15:53:51+02:00</time>
      </trkpt>
      <trkpt lat="42.41874" lon="2.33068">
        <ele>2303</ele>
        <time>2018-06-23T15:54:14+02:00</time>
      </trkpt>
      <trkpt lat="42.41896" lon="2.33039">
        <ele>2301</ele>
        <time>2018-06-23T15:54:42+02:00</time>
      </trkpt>
      <trkpt lat="42.41908" lon="2.33016">
        <ele>2301</ele>
        <time>2018-06-23T15:55:02+02:00</time>
      </trkpt>
      <trkpt lat="42.41918" lon="2.32968">
        <ele>2305</ele>
        <time>2018-06-23T15:55:31+02:00</time>
      </trkpt>
      <trkpt lat="42.41921" lon="2.32944">
        <ele>2307</ele>
        <time>2018-06-23T15:55:47+02:00</time>
      </trkpt>
      <trkpt lat="42.41927" lon="2.32935">
        <ele>2306</ele>
        <time>2018-06-23T15:55:55+02:00</time>
      </trkpt>
      <trkpt lat="42.41945" lon="2.32902">
        <ele>2304</ele>
        <time>2018-06-23T15:56:20+02:00</time>
      </trkpt>
      <trkpt lat="42.41949" lon="2.32895">
        <ele>2303</ele>
        <time>2018-06-23T15:56:30+02:00</time>
      </trkpt>
      <trkpt lat="42.41967" lon="2.3287">
        <ele>2302</ele>
        <time>2018-06-23T15:56:54+02:00</time>
      </trkpt>
      <trkpt lat="42.41977" lon="2.32855">
        <ele>2302</ele>
        <time>2018-06-23T15:57:10+02:00</time>
      </trkpt>
      <trkpt lat="42.42005" lon="2.32831">
        <ele>2301</ele>
        <time>2018-06-23T15:57:38+02:00</time>
      </trkpt>
      <trkpt lat="42.42026" lon="2.32811">
        <ele>2299</ele>
        <time>2018-06-23T15:58:05+02:00</time>
      </trkpt>
      <trkpt lat="42.42037" lon="2.32797">
        <ele>2298</ele>
        <time>2018-06-23T15:58:20+02:00</time>
      </trkpt>
      <trkpt lat="42.42052" lon="2.32766">
        <ele>2299</ele>
        <time>2018-06-23T15:58:46+02:00</time>
      </trkpt>
      <trkpt lat="42.42068" lon="2.32731">
        <ele>2301</ele>
        <time>2018-06-23T15:59:13+02:00</time>
      </trkpt>
      <trkpt lat="42.4209" lon="2.32704">
        <ele>2302</ele>
        <time>2018-06-23T15:59:36+02:00</time>
      </trkpt>
      <trkpt lat="42.42109" lon="2.32696">
        <ele>2302</ele>
        <time>2018-06-23T15:59:56+02:00</time>
      </trkpt>
      <trkpt lat="42.4212" lon="2.32681">
        <ele>2304</ele>
        <time>2018-06-23T16:00:16+02:00</time>
      </trkpt>
      <trkpt lat="42.42142" lon="2.32653">
        <ele>2305</ele>
        <time>2018-06-23T16:00:42+02:00</time>
      </trkpt>
      <trkpt lat="42.42155" lon="2.32633">
        <ele>2305</ele>
        <time>2018-06-23T16:01:00+02:00</time>
      </trkpt>
      <trkpt lat="42.42169" lon="2.32615">
        <ele>2306</ele>
        <time>2018-06-23T16:01:22+02:00</time>
      </trkpt>
      <trkpt lat="42.42183" lon="2.32629">
        <ele>2307</ele>
        <time>2018-06-23T16:01:53+02:00</time>
      </trkpt>
      <trkpt lat="42.42203" lon="2.3264">
        <ele>2309</ele>
        <time>2018-06-23T16:02:31+02:00</time>
      </trkpt>
      <trkpt lat="42.42218" lon="2.32665">
        <ele>2310</ele>
        <time>2018-06-23T16:03:06+02:00</time>
      </trkpt>
      <trkpt lat="42.42218" lon="2.32668">
        <ele>2310</ele>
        <time>2018-06-23T16:03:08+02:00</time>
      </trkpt>
      <trkpt lat="42.42237" lon="2.32689">
        <ele>2312</ele>
        <time>2018-06-23T16:03:33+02:00</time>
      </trkpt>
      <trkpt lat="42.42251" lon="2.32705">
        <ele>2314</ele>
        <time>2018-06-23T16:03:55+02:00</time>
      </trkpt>
      <trkpt lat="42.42257" lon="2.32714">
        <ele>2315</ele>
        <time>2018-06-23T16:04:04+02:00</time>
      </trkpt>
      <trkpt lat="42.42274" lon="2.32738">
        <ele>2319</ele>
        <time>2018-06-23T16:04:30+02:00</time>
      </trkpt>
      <trkpt lat="42.42281" lon="2.32761">
        <ele>2319</ele>
        <time>2018-06-23T16:04:51+02:00</time>
      </trkpt>
      <trkpt lat="42.42282" lon="2.32787">
        <ele>2318</ele>
        <time>2018-06-23T16:05:18+02:00</time>
      </trkpt>
      <trkpt lat="42.42294" lon="2.32813">
        <ele>2319</ele>
        <time>2018-06-23T16:05:41+02:00</time>
      </trkpt>
      <trkpt lat="42.42296" lon="2.32819">
        <ele>2319</ele>
        <time>2018-06-23T16:05:46+02:00</time>
      </trkpt>
      <trkpt lat="42.42326" lon="2.32854">
        <ele>2323</ele>
        <time>2018-06-23T16:06:23+02:00</time>
      </trkpt>
      <trkpt lat="42.4235" lon="2.32886">
        <ele>2325</ele>
        <time>2018-06-23T16:06:57+02:00</time>
      </trkpt>
      <trkpt lat="42.42369" lon="2.32906">
        <ele>2326</ele>
        <time>2018-06-23T16:07:22+02:00</time>
      </trkpt>
      <trkpt lat="42.42373" lon="2.32924">
        <ele>2325</ele>
        <time>2018-06-23T16:09:26+02:00</time>
      </trkpt>
      <trkpt lat="42.42396" lon="2.32928">
        <ele>2329</ele>
        <time>2018-06-23T16:09:49+02:00</time>
      </trkpt>
      <trkpt lat="42.42411" lon="2.32929">
        <ele>2332</ele>
        <time>2018-06-23T16:10:05+02:00</time>
      </trkpt>
      <trkpt lat="42.42416" lon="2.32949">
        <ele>2331</ele>
        <time>2018-06-23T16:10:19+02:00</time>
      </trkpt>
      <trkpt lat="42.42424" lon="2.3298">
        <ele>2331</ele>
        <time>2018-06-23T16:10:43+02:00</time>
      </trkpt>
      <trkpt lat="42.4244" lon="2.33007">
        <ele>2336</ele>
        <time>2018-06-23T16:11:09+02:00</time>
      </trkpt>
      <trkpt lat="42.42466" lon="2.33033">
        <ele>2342</ele>
        <time>2018-06-23T16:11:35+02:00</time>
      </trkpt>
      <trkpt lat="42.42485" lon="2.33064">
        <ele>2343</ele>
        <time>2018-06-23T16:11:59+02:00</time>
      </trkpt>
      <trkpt lat="42.42497" lon="2.33077">
        <ele>2344</ele>
        <time>2018-06-23T16:12:11+02:00</time>
      </trkpt>
      <trkpt lat="42.42521" lon="2.33128">
        <ele>2348</ele>
        <time>2018-06-23T16:12:49+02:00</time>
      </trkpt>
      <trkpt lat="42.42524" lon="2.33129">
        <ele>2349</ele>
        <time>2018-06-23T16:12:52+02:00</time>
      </trkpt>
      <trkpt lat="42.42544" lon="2.3315">
        <ele>2356</ele>
        <time>2018-06-23T16:13:13+02:00</time>
      </trkpt>
      <trkpt lat="42.42559" lon="2.33172">
        <ele>2361</ele>
        <time>2018-06-23T16:13:34+02:00</time>
      </trkpt>
      <trkpt lat="42.42563" lon="2.33199">
        <ele>2359</ele>
        <time>2018-06-23T16:13:54+02:00</time>
      </trkpt>
      <trkpt lat="42.42564" lon="2.33201">
        <ele>2359</ele>
        <time>2018-06-23T16:13:56+02:00</time>
      </trkpt>
      <trkpt lat="42.42572" lon="2.33242">
        <ele>2356</ele>
        <time>2018-06-23T16:14:26+02:00</time>
      </trkpt>
      <trkpt lat="42.42576" lon="2.33255">
        <ele>2357</ele>
        <time>2018-06-23T16:15:17+02:00</time>
      </trkpt>
      <trkpt lat="42.42577" lon="2.33274">
        <ele>2356</ele>
        <time>2018-06-23T16:15:37+02:00</time>
      </trkpt>
      <trkpt lat="42.42579" lon="2.33291">
        <ele>2355</ele>
        <time>2018-06-23T16:16:03+02:00</time>
      </trkpt>
      <trkpt lat="42.42575" lon="2.33314">
        <ele>2351</ele>
        <time>2018-06-23T16:16:25+02:00</time>
      </trkpt>
      <trkpt lat="42.42572" lon="2.33338">
        <ele>2348</ele>
        <time>2018-06-23T16:16:50+02:00</time>
      </trkpt>
      <trkpt lat="42.42572" lon="2.3336">
        <ele>2347</ele>
        <time>2018-06-23T16:17:15+02:00</time>
      </trkpt>
      <trkpt lat="42.42575" lon="2.33375">
        <ele>2347</ele>
        <time>2018-06-23T16:17:33+02:00</time>
      </trkpt>
      <trkpt lat="42.42585" lon="2.33398">
        <ele>2351</ele>
        <time>2018-06-23T16:18:01+02:00</time>
      </trkpt>
      <trkpt lat="42.42603" lon="2.33425">
        <ele>2356</ele>
        <time>2018-06-23T16:18:32+02:00</time>
      </trkpt>
      <trkpt lat="42.42625" lon="2.33449">
        <ele>2360</ele>
        <time>2018-06-23T16:19:01+02:00</time>
      </trkpt>
      <trkpt lat="42.42637" lon="2.33461">
        <ele>2362</ele>
        <time>2018-06-23T16:19:31+02:00</time>
      </trkpt>
      <trkpt lat="42.42643" lon="2.33467">
        <ele>2363</ele>
        <time>2018-06-23T16:20:17+02:00</time>
      </trkpt>
      <trkpt lat="42.42656" lon="2.33481">
        <ele>2365</ele>
        <time>2018-06-23T16:20:34+02:00</time>
      </trkpt>
      <trkpt lat="42.42671" lon="2.33498">
        <ele>2365</ele>
        <time>2018-06-23T16:20:53+02:00</time>
      </trkpt>
      <trkpt lat="42.42684" lon="2.33511">
        <ele>2368</ele>
        <time>2018-06-23T16:21:11+02:00</time>
      </trkpt>
      <trkpt lat="42.4269" lon="2.33521">
        <ele>2368</ele>
        <time>2018-06-23T16:21:24+02:00</time>
      </trkpt>
      <trkpt lat="42.42705" lon="2.3354">
        <ele>2371</ele>
        <time>2018-06-23T16:21:47+02:00</time>
      </trkpt>
      <trkpt lat="42.42715" lon="2.33562">
        <ele>2371</ele>
        <time>2018-06-23T16:22:08+02:00</time>
      </trkpt>
      <trkpt lat="42.42728" lon="2.33584">
        <ele>2372</ele>
        <time>2018-06-23T16:22:29+02:00</time>
      </trkpt>
      <trkpt lat="42.42735" lon="2.33595">
        <ele>2373</ele>
        <time>2018-06-23T16:22:40+02:00</time>
      </trkpt>
      <trkpt lat="42.42757" lon="2.33625">
        <ele>2375</ele>
        <time>2018-06-23T16:23:09+02:00</time>
      </trkpt>
      <trkpt lat="42.42775" lon="2.33657">
        <ele>2374</ele>
        <time>2018-06-23T16:23:37+02:00</time>
      </trkpt>
      <trkpt lat="42.42789" lon="2.33677">
        <ele>2374</ele>
        <time>2018-06-23T16:23:58+02:00</time>
      </trkpt>
      <trkpt lat="42.42806" lon="2.33703">
        <ele>2373</ele>
        <time>2018-06-23T16:24:23+02:00</time>
      </trkpt>
      <trkpt lat="42.42813" lon="2.33711">
        <ele>2373</ele>
        <time>2018-06-23T16:24:33+02:00</time>
      </trkpt>
      <trkpt lat="42.42839" lon="2.33728">
        <ele>2375</ele>
        <time>2018-06-23T16:25:01+02:00</time>
      </trkpt>
      <trkpt lat="42.42847" lon="2.3373">
        <ele>2375</ele>
        <time>2018-06-23T16:25:11+02:00</time>
      </trkpt>
      <trkpt lat="42.42866" lon="2.33731">
        <ele>2377</ele>
        <time>2018-06-23T16:25:31+02:00</time>
      </trkpt>
      <trkpt lat="42.42879" lon="2.33713">
        <ele>2380</ele>
        <time>2018-06-23T16:26:10+02:00</time>
      </trkpt>
      <trkpt lat="42.42889" lon="2.33725">
        <ele>2380</ele>
        <time>2018-06-23T16:28:55+02:00</time>
      </trkpt>
      <trkpt lat="42.4291" lon="2.33742">
        <ele>2381</ele>
        <time>2018-06-23T16:29:22+02:00</time>
      </trkpt>
      <trkpt lat="42.42931" lon="2.3375">
        <ele>2376</ele>
        <time>2018-06-23T16:30:30+02:00</time>
      </trkpt>
      <trkpt lat="42.42949" lon="2.33756">
        <ele>2370</ele>
        <time>2018-06-23T16:30:54+02:00</time>
      </trkpt>
      <trkpt lat="42.42966" lon="2.33754">
        <ele>2363</ele>
        <time>2018-06-23T16:31:28+02:00</time>
      </trkpt>
      <trkpt lat="42.42987" lon="2.33751">
        <ele>2355</ele>
        <time>2018-06-23T16:34:21+02:00</time>
      </trkpt>
      <trkpt lat="42.43" lon="2.33761">
        <ele>2352</ele>
        <time>2018-06-23T16:35:45+02:00</time>
      </trkpt>
      <trkpt lat="42.43011" lon="2.33771">
        <ele>2348</ele>
        <time>2018-06-23T16:36:05+02:00</time>
      </trkpt>
      <trkpt lat="42.43026" lon="2.33788">
        <ele>2344</ele>
        <time>2018-06-23T16:36:20+02:00</time>
      </trkpt>
      <trkpt lat="42.43041" lon="2.33805">
        <ele>2339</ele>
        <time>2018-06-23T16:36:47+02:00</time>
      </trkpt>
      <trkpt lat="42.43047" lon="2.33821">
        <ele>2338</ele>
        <time>2018-06-23T16:36:59+02:00</time>
      </trkpt>
      <trkpt lat="42.43057" lon="2.33832">
        <ele>2335</ele>
        <time>2018-06-23T16:37:11+02:00</time>
      </trkpt>
      <trkpt lat="42.43071" lon="2.33846">
        <ele>2331</ele>
        <time>2018-06-23T16:37:27+02:00</time>
      </trkpt>
      <trkpt lat="42.43089" lon="2.33859">
        <ele>2324</ele>
        <time>2018-06-23T16:37:45+02:00</time>
      </trkpt>
      <trkpt lat="42.431" lon="2.33873">
        <ele>2322</ele>
        <time>2018-06-23T16:37:58+02:00</time>
      </trkpt>
      <trkpt lat="42.43126" lon="2.3391">
        <ele>2318</ele>
        <time>2018-06-23T16:38:26+02:00</time>
      </trkpt>
      <trkpt lat="42.43128" lon="2.33915">
        <ele>2319</ele>
        <time>2018-06-23T16:38:29+02:00</time>
      </trkpt>
      <trkpt lat="42.43145" lon="2.33941">
        <ele>2316</ele>
        <time>2018-06-23T16:38:47+02:00</time>
      </trkpt>
      <trkpt lat="42.43149" lon="2.33962">
        <ele>2317</ele>
        <time>2018-06-23T16:39:02+02:00</time>
      </trkpt>
      <trkpt lat="42.43157" lon="2.33977">
        <ele>2316</ele>
        <time>2018-06-23T16:39:13+02:00</time>
      </trkpt>
      <trkpt lat="42.43162" lon="2.33992">
        <ele>2317</ele>
        <time>2018-06-23T16:39:23+02:00</time>
      </trkpt>
      <trkpt lat="42.43176" lon="2.34018">
        <ele>2314</ele>
        <time>2018-06-23T16:39:40+02:00</time>
      </trkpt>
      <trkpt lat="42.43188" lon="2.34043">
        <ele>2312</ele>
        <time>2018-06-23T16:40:00+02:00</time>
      </trkpt>
      <trkpt lat="42.43197" lon="2.34068">
        <ele>2311</ele>
        <time>2018-06-23T16:40:27+02:00</time>
      </trkpt>
      <trkpt lat="42.43201" lon="2.3409">
        <ele>2312</ele>
        <time>2018-06-23T16:40:41+02:00</time>
      </trkpt>
      <trkpt lat="42.43203" lon="2.34106">
        <ele>2312</ele>
        <time>2018-06-23T16:40:51+02:00</time>
      </trkpt>
      <trkpt lat="42.43214" lon="2.34147">
        <ele>2311</ele>
        <time>2018-06-23T16:41:17+02:00</time>
      </trkpt>
      <trkpt lat="42.43221" lon="2.34192">
        <ele>2312</ele>
        <time>2018-06-23T16:41:45+02:00</time>
      </trkpt>
      <trkpt lat="42.43228" lon="2.3422">
        <ele>2311</ele>
        <time>2018-06-23T16:42:04+02:00</time>
      </trkpt>
      <trkpt lat="42.43241" lon="2.34241">
        <ele>2308</ele>
        <time>2018-06-23T16:42:27+02:00</time>
      </trkpt>
      <trkpt lat="42.43246" lon="2.34252">
        <ele>2307</ele>
        <time>2018-06-23T16:42:36+02:00</time>
      </trkpt>
      <trkpt lat="42.43249" lon="2.34298">
        <ele>2309</ele>
        <time>2018-06-23T16:43:06+02:00</time>
      </trkpt>
      <trkpt lat="42.43255" lon="2.34335">
        <ele>2309</ele>
        <time>2018-06-23T16:43:31+02:00</time>
      </trkpt>
      <trkpt lat="42.43255" lon="2.34382">
        <ele>2306</ele>
        <time>2018-06-23T16:44:02+02:00</time>
      </trkpt>
      <trkpt lat="42.43254" lon="2.34417">
        <ele>2305</ele>
        <time>2018-06-23T16:44:24+02:00</time>
      </trkpt>
      <trkpt lat="42.43253" lon="2.34444">
        <ele>2305</ele>
        <time>2018-06-23T16:44:42+02:00</time>
      </trkpt>
      <trkpt lat="42.4325" lon="2.34466">
        <ele>2306</ele>
        <time>2018-06-23T16:44:58+02:00</time>
      </trkpt>
      <trkpt lat="42.43244" lon="2.34504">
        <ele>2307</ele>
        <time>2018-06-23T16:45:24+02:00</time>
      </trkpt>
      <trkpt lat="42.43236" lon="2.34537">
        <ele>2306</ele>
        <time>2018-06-23T16:45:49+02:00</time>
      </trkpt>
      <trkpt lat="42.43233" lon="2.34564">
        <ele>2304</ele>
        <time>2018-06-23T16:46:05+02:00</time>
      </trkpt>
      <trkpt lat="42.43234" lon="2.34576">
        <ele>2303</ele>
        <time>2018-06-23T16:46:13+02:00</time>
      </trkpt>
      <trkpt lat="42.43236" lon="2.34616">
        <ele>2299</ele>
        <time>2018-06-23T16:46:38+02:00</time>
      </trkpt>
      <trkpt lat="42.43237" lon="2.34641">
        <ele>2296</ele>
        <time>2018-06-23T16:46:56+02:00</time>
      </trkpt>
      <trkpt lat="42.43238" lon="2.3467">
        <ele>2293</ele>
        <time>2018-06-23T16:47:14+02:00</time>
      </trkpt>
      <trkpt lat="42.43239" lon="2.34684">
        <ele>2292</ele>
        <time>2018-06-23T16:47:23+02:00</time>
      </trkpt>
      <trkpt lat="42.43244" lon="2.34711">
        <ele>2290</ele>
        <time>2018-06-23T16:47:39+02:00</time>
      </trkpt>
      <trkpt lat="42.43244" lon="2.34717">
        <ele>2289</ele>
        <time>2018-06-23T16:47:43+02:00</time>
      </trkpt>
      <trkpt lat="42.4326" lon="2.34756">
        <ele>2286</ele>
        <time>2018-06-23T16:48:12+02:00</time>
      </trkpt>
      <trkpt lat="42.43268" lon="2.34781">
        <ele>2283</ele>
        <time>2018-06-23T16:48:35+02:00</time>
      </trkpt>
      <trkpt lat="42.43273" lon="2.34807">
        <ele>2281</ele>
        <time>2018-06-23T16:49:24+02:00</time>
      </trkpt>
      <trkpt lat="42.43277" lon="2.34818">
        <ele>2281</ele>
        <time>2018-06-23T16:49:32+02:00</time>
      </trkpt>
      <trkpt lat="42.43292" lon="2.3486">
        <ele>2276</ele>
        <time>2018-06-23T16:50:04+02:00</time>
      </trkpt>
      <trkpt lat="42.43294" lon="2.34868">
        <ele>2275</ele>
        <time>2018-06-23T16:50:10+02:00</time>
      </trkpt>
      <trkpt lat="42.43298" lon="2.34895">
        <ele>2273</ele>
        <time>2018-06-23T16:50:32+02:00</time>
      </trkpt>
      <trkpt lat="42.43309" lon="2.34918">
        <ele>2272</ele>
        <time>2018-06-23T16:50:53+02:00</time>
      </trkpt>
      <trkpt lat="42.43317" lon="2.34957">
        <ele>2267</ele>
        <time>2018-06-23T16:51:19+02:00</time>
      </trkpt>
      <trkpt lat="42.43325" lon="2.34985">
        <ele>2265</ele>
        <time>2018-06-23T16:51:41+02:00</time>
      </trkpt>
      <trkpt lat="42.43327" lon="2.35002">
        <ele>2263</ele>
        <time>2018-06-23T16:51:54+02:00</time>
      </trkpt>
      <trkpt lat="42.43331" lon="2.35023">
        <ele>2262</ele>
        <time>2018-06-23T16:52:11+02:00</time>
      </trkpt>
      <trkpt lat="42.43335" lon="2.35047">
        <ele>2261</ele>
        <time>2018-06-23T16:52:48+02:00</time>
      </trkpt>
      <trkpt lat="42.43345" lon="2.35063">
        <ele>2258</ele>
        <time>2018-06-23T16:53:01+02:00</time>
      </trkpt>
      <trkpt lat="42.43351" lon="2.35096">
        <ele>2255</ele>
        <time>2018-06-23T16:53:29+02:00</time>
      </trkpt>
      <trkpt lat="42.43357" lon="2.35113">
        <ele>2254</ele>
        <time>2018-06-23T16:53:56+02:00</time>
      </trkpt>
      <trkpt lat="42.43364" lon="2.35128">
        <ele>2253</ele>
        <time>2018-06-23T16:54:08+02:00</time>
      </trkpt>
      <trkpt lat="42.43375" lon="2.35157">
        <ele>2251</ele>
        <time>2018-06-23T16:54:31+02:00</time>
      </trkpt>
      <trkpt lat="42.43385" lon="2.35181">
        <ele>2250</ele>
        <time>2018-06-23T16:54:47+02:00</time>
      </trkpt>
      <trkpt lat="42.43394" lon="2.352">
        <ele>2251</ele>
        <time>2018-06-23T16:55:04+02:00</time>
      </trkpt>
      <trkpt lat="42.43417" lon="2.35232">
        <ele>2252</ele>
        <time>2018-06-23T16:55:35+02:00</time>
      </trkpt>
      <trkpt lat="42.43424" lon="2.35259">
        <ele>2252</ele>
        <time>2018-06-23T16:55:58+02:00</time>
      </trkpt>
      <trkpt lat="42.4343" lon="2.35295">
        <ele>2250</ele>
        <time>2018-06-23T16:56:23+02:00</time>
      </trkpt>
      <trkpt lat="42.43431" lon="2.35306">
        <ele>2249</ele>
        <time>2018-06-23T17:01:17+02:00</time>
      </trkpt>
      <trkpt lat="42.43434" lon="2.35339">
        <ele>2248</ele>
        <time>2018-06-23T17:01:53+02:00</time>
      </trkpt>
      <trkpt lat="42.4344" lon="2.35371">
        <ele>2246</ele>
        <time>2018-06-23T17:02:18+02:00</time>
      </trkpt>
      <trkpt lat="42.43433" lon="2.35414">
        <ele>2245</ele>
        <time>2018-06-23T17:02:47+02:00</time>
      </trkpt>
      <trkpt lat="42.43439" lon="2.35451">
        <ele>2242</ele>
        <time>2018-06-23T17:03:12+02:00</time>
      </trkpt>
      <trkpt lat="42.43441" lon="2.35456">
        <ele>2241</ele>
        <time>2018-06-23T17:03:15+02:00</time>
      </trkpt>
      <trkpt lat="42.43448" lon="2.35487">
        <ele>2238</ele>
        <time>2018-06-23T17:03:36+02:00</time>
      </trkpt>
      <trkpt lat="42.43451" lon="2.35501">
        <ele>2237</ele>
        <time>2018-06-23T17:03:47+02:00</time>
      </trkpt>
      <trkpt lat="42.4346" lon="2.3554">
        <ele>2236</ele>
        <time>2018-06-23T17:04:12+02:00</time>
      </trkpt>
      <trkpt lat="42.43472" lon="2.35573">
        <ele>2236</ele>
        <time>2018-06-23T17:04:35+02:00</time>
      </trkpt>
      <trkpt lat="42.4348" lon="2.35593">
        <ele>2238</ele>
        <time>2018-06-23T17:04:51+02:00</time>
      </trkpt>
      <trkpt lat="42.43486" lon="2.35612">
        <ele>2239</ele>
        <time>2018-06-23T17:05:04+02:00</time>
      </trkpt>
      <trkpt lat="42.43491" lon="2.35625">
        <ele>2240</ele>
        <time>2018-06-23T17:05:13+02:00</time>
      </trkpt>
      <trkpt lat="42.43501" lon="2.35646">
        <ele>2242</ele>
        <time>2018-06-23T17:05:29+02:00</time>
      </trkpt>
      <trkpt lat="42.43511" lon="2.35672">
        <ele>2241</ele>
        <time>2018-06-23T17:05:48+02:00</time>
      </trkpt>
      <trkpt lat="42.43515" lon="2.35684">
        <ele>2240</ele>
        <time>2018-06-23T17:05:56+02:00</time>
      </trkpt>
      <trkpt lat="42.43525" lon="2.3571">
        <ele>2237</ele>
        <time>2018-06-23T17:06:14+02:00</time>
      </trkpt>
      <trkpt lat="42.43533" lon="2.35738">
        <ele>2235</ele>
        <time>2018-06-23T17:06:34+02:00</time>
      </trkpt>
      <trkpt lat="42.43542" lon="2.35762">
        <ele>2233</ele>
        <time>2018-06-23T17:06:51+02:00</time>
      </trkpt>
      <trkpt lat="42.43547" lon="2.35771">
        <ele>2232</ele>
        <time>2018-06-23T17:06:59+02:00</time>
      </trkpt>
      <trkpt lat="42.43552" lon="2.35802">
        <ele>2232</ele>
        <time>2018-06-23T17:07:23+02:00</time>
      </trkpt>
      <trkpt lat="42.43559" lon="2.35823">
        <ele>2232</ele>
        <time>2018-06-23T17:07:38+02:00</time>
      </trkpt>
      <trkpt lat="42.43564" lon="2.35851">
        <ele>2232</ele>
        <time>2018-06-23T17:07:58+02:00</time>
      </trkpt>
      <trkpt lat="42.4357" lon="2.3588">
        <ele>2232</ele>
        <time>2018-06-23T17:08:18+02:00</time>
      </trkpt>
      <trkpt lat="42.43571" lon="2.35887">
        <ele>2233</ele>
        <time>2018-06-23T17:08:22+02:00</time>
      </trkpt>
      <trkpt lat="42.43577" lon="2.35921">
        <ele>2234</ele>
        <time>2018-06-23T17:08:46+02:00</time>
      </trkpt>
      <trkpt lat="42.43582" lon="2.3594">
        <ele>2233</ele>
        <time>2018-06-23T17:09:06+02:00</time>
      </trkpt>
      <trkpt lat="42.43585" lon="2.35951">
        <ele>2233</ele>
        <time>2018-06-23T17:09:14+02:00</time>
      </trkpt>
      <trkpt lat="42.43598" lon="2.36008">
        <ele>2229</ele>
        <time>2018-06-23T17:10:48+02:00</time>
      </trkpt>
      <trkpt lat="42.43604" lon="2.36012">
        <ele>2228</ele>
        <time>2018-06-23T17:10:55+02:00</time>
      </trkpt>
      <trkpt lat="42.43625" lon="2.36046">
        <ele>2227</ele>
        <time>2018-06-23T17:11:22+02:00</time>
      </trkpt>
      <trkpt lat="42.4364" lon="2.3607">
        <ele>2227</ele>
        <time>2018-06-23T17:11:41+02:00</time>
      </trkpt>
      <trkpt lat="42.43663" lon="2.361">
        <ele>2228</ele>
        <time>2018-06-23T17:12:08+02:00</time>
      </trkpt>
      <trkpt lat="42.43675" lon="2.36121">
        <ele>2228</ele>
        <time>2018-06-23T17:12:26+02:00</time>
      </trkpt>
      <trkpt lat="42.43683" lon="2.36141">
        <ele>2228</ele>
        <time>2018-06-23T17:12:43+02:00</time>
      </trkpt>
      <trkpt lat="42.43689" lon="2.36163">
        <ele>2228</ele>
        <time>2018-06-23T17:13:02+02:00</time>
      </trkpt>
      <trkpt lat="42.43697" lon="2.36186">
        <ele>2229</ele>
        <time>2018-06-23T17:13:23+02:00</time>
      </trkpt>
      <trkpt lat="42.43702" lon="2.36199">
        <ele>2230</ele>
        <time>2018-06-23T17:13:52+02:00</time>
      </trkpt>
      <trkpt lat="42.43709" lon="2.36224">
        <ele>2231</ele>
        <time>2018-06-23T17:14:12+02:00</time>
      </trkpt>
      <trkpt lat="42.43716" lon="2.36244">
        <ele>2233</ele>
        <time>2018-06-23T17:14:28+02:00</time>
      </trkpt>
      <trkpt lat="42.43726" lon="2.3627">
        <ele>2232</ele>
        <time>2018-06-23T17:15:08+02:00</time>
      </trkpt>
      <trkpt lat="42.43732" lon="2.36289">
        <ele>2232</ele>
        <time>2018-06-23T17:15:30+02:00</time>
      </trkpt>
      <trkpt lat="42.43738" lon="2.36325">
        <ele>2233</ele>
        <time>2018-06-23T17:15:55+02:00</time>
      </trkpt>
      <trkpt lat="42.4374" lon="2.36337">
        <ele>2233</ele>
        <time>2018-06-23T17:16:04+02:00</time>
      </trkpt>
      <trkpt lat="42.43748" lon="2.36371">
        <ele>2233</ele>
        <time>2018-06-23T17:16:34+02:00</time>
      </trkpt>
      <trkpt lat="42.43753" lon="2.36389">
        <ele>2233</ele>
        <time>2018-06-23T17:16:51+02:00</time>
      </trkpt>
      <trkpt lat="42.43757" lon="2.36423">
        <ele>2234</ele>
        <time>2018-06-23T17:17:17+02:00</time>
      </trkpt>
      <trkpt lat="42.43761" lon="2.3645">
        <ele>2232</ele>
        <time>2018-06-23T17:17:42+02:00</time>
      </trkpt>
      <trkpt lat="42.4376" lon="2.36483">
        <ele>2231</ele>
        <time>2018-06-23T17:18:07+02:00</time>
      </trkpt>
      <trkpt lat="42.43758" lon="2.36499">
        <ele>2231</ele>
        <time>2018-06-23T17:18:20+02:00</time>
      </trkpt>
      <trkpt lat="42.43752" lon="2.36519">
        <ele>2233</ele>
        <time>2018-06-23T17:18:52+02:00</time>
      </trkpt>
      <trkpt lat="42.43748" lon="2.36527">
        <ele>2233</ele>
        <time>2018-06-23T17:20:13+02:00</time>
      </trkpt>
      <trkpt lat="42.4374" lon="2.36542">
        <ele>2232</ele>
        <time>2018-06-23T17:20:27+02:00</time>
      </trkpt>
      <trkpt lat="42.43734" lon="2.36559">
        <ele>2231</ele>
        <time>2018-06-23T17:20:46+02:00</time>
      </trkpt>
      <trkpt lat="42.4372" lon="2.36581">
        <ele>2228</ele>
        <time>2018-06-23T17:21:13+02:00</time>
      </trkpt>
      <trkpt lat="42.43716" lon="2.36589">
        <ele>2227</ele>
        <time>2018-06-23T17:21:30+02:00</time>
      </trkpt>
      <trkpt lat="42.43707" lon="2.3661">
        <ele>2225</ele>
        <time>2018-06-23T17:21:48+02:00</time>
      </trkpt>
      <trkpt lat="42.43702" lon="2.36624">
        <ele>2224</ele>
        <time>2018-06-23T17:21:59+02:00</time>
      </trkpt>
      <trkpt lat="42.43692" lon="2.36649">
        <ele>2221</ele>
        <time>2018-06-23T17:22:52+02:00</time>
      </trkpt>
      <trkpt lat="42.43685" lon="2.36673">
        <ele>2218</ele>
        <time>2018-06-23T17:23:14+02:00</time>
      </trkpt>
      <trkpt lat="42.43681" lon="2.36702">
        <ele>2214</ele>
        <time>2018-06-23T17:23:34+02:00</time>
      </trkpt>
      <trkpt lat="42.43679" lon="2.36721">
        <ele>2211</ele>
        <time>2018-06-23T17:23:47+02:00</time>
      </trkpt>
      <trkpt lat="42.43673" lon="2.36759">
        <ele>2206</ele>
        <time>2018-06-23T17:24:12+02:00</time>
      </trkpt>
      <trkpt lat="42.43666" lon="2.36798">
        <ele>2201</ele>
        <time>2018-06-23T17:24:35+02:00</time>
      </trkpt>
      <trkpt lat="42.43659" lon="2.36825">
        <ele>2197</ele>
        <time>2018-06-23T17:24:53+02:00</time>
      </trkpt>
      <trkpt lat="42.4366" lon="2.36833">
        <ele>2197</ele>
        <time>2018-06-23T17:24:57+02:00</time>
      </trkpt>
      <trkpt lat="42.43665" lon="2.36865">
        <ele>2195</ele>
        <time>2018-06-23T17:25:18+02:00</time>
      </trkpt>
      <trkpt lat="42.43657" lon="2.3689">
        <ele>2192</ele>
        <time>2018-06-23T17:25:35+02:00</time>
      </trkpt>
      <trkpt lat="42.43652" lon="2.36902">
        <ele>2191</ele>
        <time>2018-06-23T17:25:45+02:00</time>
      </trkpt>
      <trkpt lat="42.43643" lon="2.36916">
        <ele>2188</ele>
        <time>2018-06-23T17:25:58+02:00</time>
      </trkpt>
      <trkpt lat="42.43634" lon="2.36935">
        <ele>2185</ele>
        <time>2018-06-23T17:26:14+02:00</time>
      </trkpt>
      <trkpt lat="42.4362" lon="2.36961">
        <ele>2181</ele>
        <time>2018-06-23T17:26:34+02:00</time>
      </trkpt>
      <trkpt lat="42.43617" lon="2.3698">
        <ele>2179</ele>
        <time>2018-06-23T17:26:47+02:00</time>
      </trkpt>
      <trkpt lat="42.43612" lon="2.37002">
        <ele>2176</ele>
        <time>2018-06-23T17:27:03+02:00</time>
      </trkpt>
      <trkpt lat="42.43601" lon="2.37027">
        <ele>2171</ele>
        <time>2018-06-23T17:27:28+02:00</time>
      </trkpt>
      <trkpt lat="42.43594" lon="2.37039">
        <ele>2168</ele>
        <time>2018-06-23T17:27:41+02:00</time>
      </trkpt>
      <trkpt lat="42.43588" lon="2.37059">
        <ele>2165</ele>
        <time>2018-06-23T17:28:00+02:00</time>
      </trkpt>
      <trkpt lat="42.43583" lon="2.37073">
        <ele>2162</ele>
        <time>2018-06-23T17:28:13+02:00</time>
      </trkpt>
      <trkpt lat="42.43575" lon="2.37087">
        <ele>2158</ele>
        <time>2018-06-23T17:28:29+02:00</time>
      </trkpt>
      <trkpt lat="42.43566" lon="2.37114">
        <ele>2152</ele>
        <time>2018-06-23T17:29:01+02:00</time>
      </trkpt>
      <trkpt lat="42.43554" lon="2.37137">
        <ele>2145</ele>
        <time>2018-06-23T17:29:29+02:00</time>
      </trkpt>
      <trkpt lat="42.43545" lon="2.3715">
        <ele>2142</ele>
        <time>2018-06-23T17:29:53+02:00</time>
      </trkpt>
      <trkpt lat="42.43526" lon="2.37217">
        <ele>2128</ele>
        <time>2018-06-23T17:31:43+02:00</time>
      </trkpt>
      <trkpt lat="42.4352" lon="2.37257">
        <ele>2121</ele>
        <time>2018-06-23T17:32:57+02:00</time>
      </trkpt>
      <trkpt lat="42.43517" lon="2.37299">
        <ele>2115</ele>
        <time>2018-06-23T17:33:39+02:00</time>
      </trkpt>
      <trkpt lat="42.43512" lon="2.37319">
        <ele>2111</ele>
        <time>2018-06-23T17:34:03+02:00</time>
      </trkpt>
      <trkpt lat="42.43502" lon="2.37342">
        <ele>2105</ele>
        <time>2018-06-23T17:35:00+02:00</time>
      </trkpt>
      <trkpt lat="42.43501" lon="2.37361">
        <ele>2101</ele>
        <time>2018-06-23T17:35:21+02:00</time>
      </trkpt>
      <trkpt lat="42.43515" lon="2.3738">
        <ele>2102</ele>
        <time>2018-06-23T17:35:41+02:00</time>
      </trkpt>
      <trkpt lat="42.43527" lon="2.37405">
        <ele>2101</ele>
        <time>2018-06-23T17:36:02+02:00</time>
      </trkpt>
      <trkpt lat="42.43534" lon="2.37421">
        <ele>2101</ele>
        <time>2018-06-23T17:36:13+02:00</time>
      </trkpt>
      <trkpt lat="42.43537" lon="2.37443">
        <ele>2098</ele>
        <time>2018-06-23T17:36:28+02:00</time>
      </trkpt>
      <trkpt lat="42.43536" lon="2.37463">
        <ele>2094</ele>
        <time>2018-06-23T17:36:42+02:00</time>
      </trkpt>
      <trkpt lat="42.43536" lon="2.37497">
        <ele>2089</ele>
        <time>2018-06-23T17:37:05+02:00</time>
      </trkpt>
      <trkpt lat="42.4354" lon="2.37536">
        <ele>2088</ele>
        <time>2018-06-23T17:37:33+02:00</time>
      </trkpt>
      <trkpt lat="42.43541" lon="2.37565">
        <ele>2088</ele>
        <time>2018-06-23T17:37:55+02:00</time>
      </trkpt>
      <trkpt lat="42.43534" lon="2.3759">
        <ele>2085</ele>
        <time>2018-06-23T17:38:15+02:00</time>
      </trkpt>
      <trkpt lat="42.43527" lon="2.37619">
        <ele>2085</ele>
        <time>2018-06-23T17:38:51+02:00</time>
      </trkpt>
      <trkpt lat="42.43516" lon="2.37638">
        <ele>2084</ele>
        <time>2018-06-23T17:39:21+02:00</time>
      </trkpt>
      <trkpt lat="42.43501" lon="2.37658">
        <ele>2082</ele>
        <time>2018-06-23T17:39:40+02:00</time>
      </trkpt>
      <trkpt lat="42.43488" lon="2.37668">
        <ele>2078</ele>
        <time>2018-06-23T17:39:56+02:00</time>
      </trkpt>
      <trkpt lat="42.43478" lon="2.37674">
        <ele>2074</ele>
        <time>2018-06-23T17:40:07+02:00</time>
      </trkpt>
      <trkpt lat="42.43461" lon="2.37686">
        <ele>2066</ele>
        <time>2018-06-23T17:40:33+02:00</time>
      </trkpt>
      <trkpt lat="42.43443" lon="2.37702">
        <ele>2059</ele>
        <time>2018-06-23T17:41:13+02:00</time>
      </trkpt>
      <trkpt lat="42.43434" lon="2.37716">
        <ele>2056</ele>
        <time>2018-06-23T17:41:44+02:00</time>
      </trkpt>
      <trkpt lat="42.43435" lon="2.37736">
        <ele>2058</ele>
        <time>2018-06-23T17:42:08+02:00</time>
      </trkpt>
      <trkpt lat="42.4343" lon="2.37754">
        <ele>2056</ele>
        <time>2018-06-23T17:42:29+02:00</time>
      </trkpt>
      <trkpt lat="42.43426" lon="2.37779">
        <ele>2051</ele>
        <time>2018-06-23T17:42:53+02:00</time>
      </trkpt>
      <trkpt lat="42.43421" lon="2.37792">
        <ele>2047</ele>
        <time>2018-06-23T17:43:11+02:00</time>
      </trkpt>
      <trkpt lat="42.43419" lon="2.37809">
        <ele>2044</ele>
        <time>2018-06-23T17:43:28+02:00</time>
      </trkpt>
      <trkpt lat="42.43413" lon="2.37823">
        <ele>2040</ele>
        <time>2018-06-23T17:43:43+02:00</time>
      </trkpt>
      <trkpt lat="42.434" lon="2.37847">
        <ele>2033</ele>
        <time>2018-06-23T17:44:14+02:00</time>
      </trkpt>
      <trkpt lat="42.4338" lon="2.37855">
        <ele>2027</ele>
        <time>2018-06-23T17:44:42+02:00</time>
      </trkpt>
      <trkpt lat="42.43358" lon="2.37853">
        <ele>2019</ele>
        <time>2018-06-23T17:45:16+02:00</time>
      </trkpt>
      <trkpt lat="42.4334" lon="2.37844">
        <ele>2012</ele>
        <time>2018-06-23T17:45:45+02:00</time>
      </trkpt>
      <trkpt lat="42.43327" lon="2.37833">
        <ele>2005</ele>
        <time>2018-06-23T17:46:10+02:00</time>
      </trkpt>
      <trkpt lat="42.4331" lon="2.37828">
        <ele>1999</ele>
        <time>2018-06-23T17:46:38+02:00</time>
      </trkpt>
      <trkpt lat="42.43296" lon="2.37815">
        <ele>1992</ele>
        <time>2018-06-23T17:47:03+02:00</time>
      </trkpt>
      <trkpt lat="42.43276" lon="2.37801">
        <ele>1981</ele>
        <time>2018-06-23T17:47:58+02:00</time>
      </trkpt>
      <trkpt lat="42.43256" lon="2.37807">
        <ele>1975</ele>
        <time>2018-06-23T17:48:29+02:00</time>
      </trkpt>
      <trkpt lat="42.43243" lon="2.37801">
        <ele>1968</ele>
        <time>2018-06-23T17:48:55+02:00</time>
      </trkpt>
      <trkpt lat="42.43223" lon="2.37795">
        <ele>1960</ele>
        <time>2018-06-23T17:49:25+02:00</time>
      </trkpt>
      <trkpt lat="42.43205" lon="2.37793">
        <ele>1953</ele>
        <time>2018-06-23T17:49:48+02:00</time>
      </trkpt>
      <trkpt lat="42.43188" lon="2.3779">
        <ele>1946</ele>
        <time>2018-06-23T17:50:13+02:00</time>
      </trkpt>
      <trkpt lat="42.43167" lon="2.37796">
        <ele>1942</ele>
        <time>2018-06-23T17:50:52+02:00</time>
      </trkpt>
      <trkpt lat="42.43152" lon="2.37791">
        <ele>1935</ele>
        <time>2018-06-23T17:51:08+02:00</time>
      </trkpt>
      <trkpt lat="42.43133" lon="2.37797">
        <ele>1931</ele>
        <time>2018-06-23T17:51:46+02:00</time>
      </trkpt>
      <trkpt lat="42.43121" lon="2.37814">
        <ele>1930</ele>
        <time>2018-06-23T17:52:04+02:00</time>
      </trkpt>
      <trkpt lat="42.43116" lon="2.37841">
        <ele>1931</ele>
        <time>2018-06-23T17:55:27+02:00</time>
      </trkpt>
      <trkpt lat="42.43112" lon="2.37868">
        <ele>1925</ele>
        <time>2018-06-23T17:56:02+02:00</time>
      </trkpt>
      <trkpt lat="42.4312" lon="2.37895">
        <ele>1925</ele>
        <time>2018-06-23T17:56:41+02:00</time>
      </trkpt>
      <trkpt lat="42.43114" lon="2.37922">
        <ele>1917</ele>
        <time>2018-06-23T17:57:50+02:00</time>
      </trkpt>
      <trkpt lat="42.43116" lon="2.37948">
        <ele>1908</ele>
        <time>2018-06-23T17:58:09+02:00</time>
      </trkpt>
      <trkpt lat="42.4312" lon="2.37965">
        <ele>1904</ele>
        <time>2018-06-23T17:58:23+02:00</time>
      </trkpt>
      <trkpt lat="42.43126" lon="2.37992">
        <ele>1896</ele>
        <time>2018-06-23T17:58:42+02:00</time>
      </trkpt>
      <trkpt lat="42.43135" lon="2.38008">
        <ele>1894</ele>
        <time>2018-06-23T17:59:00+02:00</time>
      </trkpt>
      <trkpt lat="42.43134" lon="2.38027">
        <ele>1887</ele>
        <time>2018-06-23T17:59:32+02:00</time>
      </trkpt>
      <trkpt lat="42.43139" lon="2.38056">
        <ele>1879</ele>
        <time>2018-06-23T18:00:06+02:00</time>
      </trkpt>
      <trkpt lat="42.43149" lon="2.38082">
        <ele>1874</ele>
        <time>2018-06-23T18:00:29+02:00</time>
      </trkpt>
      <trkpt lat="42.43152" lon="2.38105">
        <ele>1870</ele>
        <time>2018-06-23T18:00:48+02:00</time>
      </trkpt>
      <trkpt lat="42.43156" lon="2.38142">
        <ele>1863</ele>
        <time>2018-06-23T18:01:11+02:00</time>
      </trkpt>
      <trkpt lat="42.43158" lon="2.38168">
        <ele>1859</ele>
        <time>2018-06-23T18:01:41+02:00</time>
      </trkpt>
      <trkpt lat="42.43162" lon="2.38198">
        <ele>1858</ele>
        <time>2018-06-23T18:02:02+02:00</time>
      </trkpt>
      <trkpt lat="42.43164" lon="2.38224">
        <ele>1855</ele>
        <time>2018-06-23T18:02:19+02:00</time>
      </trkpt>
      <trkpt lat="42.43164" lon="2.38248">
        <ele>1852</ele>
        <time>2018-06-23T18:02:39+02:00</time>
      </trkpt>
      <trkpt lat="42.43153" lon="2.38269">
        <ele>1848</ele>
        <time>2018-06-23T18:02:59+02:00</time>
      </trkpt>
      <trkpt lat="42.43135" lon="2.3828">
        <ele>1842</ele>
        <time>2018-06-23T18:03:33+02:00</time>
      </trkpt>
      <trkpt lat="42.43114" lon="2.38287">
        <ele>1836</ele>
        <time>2018-06-23T18:03:58+02:00</time>
      </trkpt>
      <trkpt lat="42.43094" lon="2.38291">
        <ele>1831</ele>
        <time>2018-06-23T18:04:18+02:00</time>
      </trkpt>
      <trkpt lat="42.43075" lon="2.38303">
        <ele>1826</ele>
        <time>2018-06-23T18:04:36+02:00</time>
      </trkpt>
      <trkpt lat="42.43052" lon="2.38304">
        <ele>1820</ele>
        <time>2018-06-23T18:04:57+02:00</time>
      </trkpt>
      <trkpt lat="42.43039" lon="2.38302">
        <ele>1817</ele>
        <time>2018-06-23T18:05:10+02:00</time>
      </trkpt>
      <trkpt lat="42.43018" lon="2.38302">
        <ele>1811</ele>
        <time>2018-06-23T18:05:42+02:00</time>
      </trkpt>
      <trkpt lat="42.43003" lon="2.38313">
        <ele>1809</ele>
        <time>2018-06-23T18:06:02+02:00</time>
      </trkpt>
      <trkpt lat="42.42994" lon="2.38327">
        <ele>1808</ele>
        <time>2018-06-23T18:06:15+02:00</time>
      </trkpt>
      <trkpt lat="42.42981" lon="2.38332">
        <ele>1804</ele>
        <time>2018-06-23T18:06:36+02:00</time>
      </trkpt>
      <trkpt lat="42.42974" lon="2.38345">
        <ele>1802</ele>
        <time>2018-06-23T18:06:47+02:00</time>
      </trkpt>
      <trkpt lat="42.42963" lon="2.38358">
        <ele>1800</ele>
        <time>2018-06-23T18:06:59+02:00</time>
      </trkpt>
      <trkpt lat="42.42955" lon="2.38361">
        <ele>1797</ele>
        <time>2018-06-23T18:07:09+02:00</time>
      </trkpt>
      <trkpt lat="42.42934" lon="2.38394">
        <ele>1793</ele>
        <time>2018-06-23T18:07:35+02:00</time>
      </trkpt>
      <trkpt lat="42.42921" lon="2.38408">
        <ele>1790</ele>
        <time>2018-06-23T18:07:56+02:00</time>
      </trkpt>
      <trkpt lat="42.42913" lon="2.38425">
        <ele>1787</ele>
        <time>2018-06-23T18:08:20+02:00</time>
      </trkpt>
      <trkpt lat="42.42907" lon="2.38443">
        <ele>1784</ele>
        <time>2018-06-23T18:08:35+02:00</time>
      </trkpt>
      <trkpt lat="42.42905" lon="2.38453">
        <ele>1783</ele>
        <time>2018-06-23T18:08:44+02:00</time>
      </trkpt>
      <trkpt lat="42.42895" lon="2.38472">
        <ele>1777</ele>
        <time>2018-06-23T18:09:06+02:00</time>
      </trkpt>
      <trkpt lat="42.42889" lon="2.38496">
        <ele>1774</ele>
        <time>2018-06-23T18:09:19+02:00</time>
      </trkpt>
      <trkpt lat="42.42887" lon="2.38514">
        <ele>1773</ele>
        <time>2018-06-23T18:09:30+02:00</time>
      </trkpt>
      <trkpt lat="42.42886" lon="2.38531">
        <ele>1771</ele>
        <time>2018-06-23T18:09:44+02:00</time>
      </trkpt>
      <trkpt lat="42.42884" lon="2.38555">
        <ele>1769</ele>
        <time>2018-06-23T18:09:58+02:00</time>
      </trkpt>
      <trkpt lat="42.4289" lon="2.38578">
        <ele>1771</ele>
        <time>2018-06-23T18:10:13+02:00</time>
      </trkpt>
      <trkpt lat="42.42893" lon="2.38607">
        <ele>1774</ele>
        <time>2018-06-23T18:10:35+02:00</time>
      </trkpt>
      <trkpt lat="42.42894" lon="2.38629">
        <ele>1775</ele>
        <time>2018-06-23T18:10:56+02:00</time>
      </trkpt>
      <trkpt lat="42.42891" lon="2.38638">
        <ele>1774</ele>
        <time>2018-06-23T18:11:04+02:00</time>
      </trkpt>
      <trkpt lat="42.42887" lon="2.38663">
        <ele>1773</ele>
        <time>2018-06-23T18:11:17+02:00</time>
      </trkpt>
      <trkpt lat="42.42883" lon="2.38669">
        <ele>1772</ele>
        <time>2018-06-23T18:11:22+02:00</time>
      </trkpt>
      <trkpt lat="42.42869" lon="2.38683">
        <ele>1769</ele>
        <time>2018-06-23T18:11:37+02:00</time>
      </trkpt>
      <trkpt lat="42.42865" lon="2.38693">
        <ele>1769</ele>
        <time>2018-06-23T18:11:45+02:00</time>
      </trkpt>
      <trkpt lat="42.42848" lon="2.38711">
        <ele>1765</ele>
        <time>2018-06-23T18:12:06+02:00</time>
      </trkpt>
      <trkpt lat="42.42826" lon="2.38734">
        <ele>1760</ele>
        <time>2018-06-23T18:12:30+02:00</time>
      </trkpt>
      <trkpt lat="42.42814" lon="2.38761">
        <ele>1758</ele>
        <time>2018-06-23T18:12:58+02:00</time>
      </trkpt>
      <trkpt lat="42.42799" lon="2.3878">
        <ele>1753</ele>
        <time>2018-06-23T18:13:17+02:00</time>
      </trkpt>
      <trkpt lat="42.42799" lon="2.38786">
        <ele>1753</ele>
        <time>2018-06-23T18:13:21+02:00</time>
      </trkpt>
      <trkpt lat="42.42791" lon="2.3881">
        <ele>1750</ele>
        <time>2018-06-23T18:13:36+02:00</time>
      </trkpt>
      <trkpt lat="42.42781" lon="2.38823">
        <ele>1746</ele>
        <time>2018-06-23T18:13:51+02:00</time>
      </trkpt>
      <trkpt lat="42.4278" lon="2.38845">
        <ele>1746</ele>
        <time>2018-06-23T18:14:03+02:00</time>
      </trkpt>
      <trkpt lat="42.42782" lon="2.38859">
        <ele>1745</ele>
        <time>2018-06-23T18:14:18+02:00</time>
      </trkpt>
      <trkpt lat="42.42784" lon="2.38881">
        <ele>1744</ele>
        <time>2018-06-23T18:14:40+02:00</time>
      </trkpt>
      <trkpt lat="42.42781" lon="2.38897">
        <ele>1742</ele>
        <time>2018-06-23T18:14:52+02:00</time>
      </trkpt>
      <trkpt lat="42.4278" lon="2.38911">
        <ele>1740</ele>
        <time>2018-06-23T18:14:59+02:00</time>
      </trkpt>
      <trkpt lat="42.42783" lon="2.3893">
        <ele>1740</ele>
        <time>2018-06-23T18:15:15+02:00</time>
      </trkpt>
      <trkpt lat="42.42778" lon="2.38958">
        <ele>1737</ele>
        <time>2018-06-23T18:15:37+02:00</time>
      </trkpt>
      <trkpt lat="42.42778" lon="2.38969">
        <ele>1736</ele>
        <time>2018-06-23T18:15:44+02:00</time>
      </trkpt>
      <trkpt lat="42.4277" lon="2.38987">
        <ele>1733</ele>
        <time>2018-06-23T18:16:02+02:00</time>
      </trkpt>
      <trkpt lat="42.42769" lon="2.39023">
        <ele>1732</ele>
        <time>2018-06-23T18:16:24+02:00</time>
      </trkpt>
      <trkpt lat="42.4276" lon="2.39036">
        <ele>1730</ele>
        <time>2018-06-23T18:17:32+02:00</time>
      </trkpt>
      <trkpt lat="42.42752" lon="2.39058">
        <ele>1728</ele>
        <time>2018-06-23T18:17:58+02:00</time>
      </trkpt>
      <trkpt lat="42.4275" lon="2.39067">
        <ele>1727</ele>
        <time>2018-06-23T18:18:20+02:00</time>
      </trkpt>
      <trkpt lat="42.42743" lon="2.39086">
        <ele>1725</ele>
        <time>2018-06-23T18:18:34+02:00</time>
      </trkpt>
      <trkpt lat="42.42737" lon="2.39108">
        <ele>1721</ele>
        <time>2018-06-23T18:19:03+02:00</time>
      </trkpt>
      <trkpt lat="42.42744" lon="2.39136">
        <ele>1719</ele>
        <time>2018-06-23T18:22:37+02:00</time>
      </trkpt>
      <trkpt lat="42.42742" lon="2.39156">
        <ele>1716</ele>
        <time>2018-06-23T18:23:03+02:00</time>
      </trkpt>
      <trkpt lat="42.42735" lon="2.39175">
        <ele>1712</ele>
        <time>2018-06-23T18:23:26+02:00</time>
      </trkpt>
      <trkpt lat="42.42726" lon="2.39194">
        <ele>1708</ele>
        <time>2018-06-23T18:24:03+02:00</time>
      </trkpt>
      <trkpt lat="42.42718" lon="2.39206">
        <ele>1706</ele>
        <time>2018-06-23T18:24:25+02:00</time>
      </trkpt>
      <trkpt lat="42.42711" lon="2.39235">
        <ele>1702</ele>
        <time>2018-06-23T18:24:52+02:00</time>
      </trkpt>
      <trkpt lat="42.427" lon="2.39259">
        <ele>1700</ele>
        <time>2018-06-23T18:25:12+02:00</time>
      </trkpt>
      <trkpt lat="42.4267" lon="2.39278">
        <ele>1697</ele>
        <time>2018-06-23T18:25:42+02:00</time>
      </trkpt>
      <trkpt lat="42.42638" lon="2.3929">
        <ele>1695</ele>
        <time>2018-06-23T18:26:15+02:00</time>
      </trkpt>
      <trkpt lat="42.42631" lon="2.39315">
        <ele>1695</ele>
        <time>2018-06-23T18:26:50+02:00</time>
      </trkpt>
      <trkpt lat="42.42636" lon="2.39339">
        <ele>1694</ele>
        <time>2018-06-23T18:27:47+02:00</time>
      </trkpt>
      <trkpt lat="42.42633" lon="2.39364">
        <ele>1692</ele>
        <time>2018-06-23T18:28:11+02:00</time>
      </trkpt>
      <trkpt lat="42.42635" lon="2.3938">
        <ele>1690</ele>
        <time>2018-06-23T18:28:51+02:00</time>
      </trkpt>
      <trkpt lat="42.42633" lon="2.39402">
        <ele>1688</ele>
        <time>2018-06-23T18:29:09+02:00</time>
      </trkpt>
      <trkpt lat="42.42629" lon="2.39429">
        <ele>1685</ele>
        <time>2018-06-23T18:29:41+02:00</time>
      </trkpt>
      <trkpt lat="42.4263" lon="2.39442">
        <ele>1682</ele>
        <time>2018-06-23T18:29:55+02:00</time>
      </trkpt>
      <trkpt lat="42.42623" lon="2.39462">
        <ele>1678</ele>
        <time>2018-06-23T18:30:12+02:00</time>
      </trkpt>
      <trkpt lat="42.42619" lon="2.39492">
        <ele>1672</ele>
        <time>2018-06-23T18:30:38+02:00</time>
      </trkpt>
      <trkpt lat="42.42619" lon="2.39505">
        <ele>1670</ele>
        <time>2018-06-23T18:30:53+02:00</time>
      </trkpt>
      <trkpt lat="42.42613" lon="2.39534">
        <ele>1664</ele>
        <time>2018-06-23T18:31:24+02:00</time>
      </trkpt>
      <trkpt lat="42.4261" lon="2.39547">
        <ele>1661</ele>
        <time>2018-06-23T18:31:37+02:00</time>
      </trkpt>
      <trkpt lat="42.42613" lon="2.39565">
        <ele>1656</ele>
        <time>2018-06-23T18:31:58+02:00</time>
      </trkpt>
      <trkpt lat="42.4262" lon="2.39589">
        <ele>1650</ele>
        <time>2018-06-23T18:32:33+02:00</time>
      </trkpt>
      <trkpt lat="42.42624" lon="2.39618">
        <ele>1641</ele>
        <time>2018-06-23T18:33:07+02:00</time>
      </trkpt>
      <trkpt lat="42.42616" lon="2.39639">
        <ele>1635</ele>
        <time>2018-06-23T18:33:24+02:00</time>
      </trkpt>
      <trkpt lat="42.4261" lon="2.39659">
        <ele>1630</ele>
        <time>2018-06-23T18:33:39+02:00</time>
      </trkpt>
      <trkpt lat="42.42605" lon="2.39687">
        <ele>1625</ele>
        <time>2018-06-23T18:33:58+02:00</time>
      </trkpt>
      <trkpt lat="42.42608" lon="2.3971">
        <ele>1621</ele>
        <time>2018-06-23T18:34:17+02:00</time>
      </trkpt>
      <trkpt lat="42.4261" lon="2.39726">
        <ele>1618</ele>
        <time>2018-06-23T18:34:32+02:00</time>
      </trkpt>
      <trkpt lat="42.42616" lon="2.39747">
        <ele>1614</ele>
        <time>2018-06-23T18:34:47+02:00</time>
      </trkpt>
      <trkpt lat="42.42618" lon="2.39768">
        <ele>1611</ele>
        <time>2018-06-23T18:35:03+02:00</time>
      </trkpt>
      <trkpt lat="42.4263" lon="2.39787">
        <ele>1607</ele>
        <time>2018-06-23T18:35:21+02:00</time>
      </trkpt>
      <trkpt lat="42.42647" lon="2.39791">
        <ele>1604</ele>
        <time>2018-06-23T18:36:54+02:00</time>
      </trkpt>
    </trkseg>
  </trk>
</gpx>